Time,TemperatureF,DewpointF,PressureIn,WindDirection,WindDirectionDegrees,WindSpeedMPH,WindSpeedGustMPH,Humidity,HourlyPrecipIn,Conditions,Clouds,dailyrainin,SoftwareType,DateUTC
2013-02-22 00:00:00,39.5,35.4,30.21,East,91,2.3,2.3,85,0.12,RA,,0.14,WeatherDisplay:10.37,2013-02-22 05:00:00,
2013-02-22 00:05:00,39.0,35.5,30.21,ENE,77,2.0,2.0,87,0.13,RA,,0.01,WeatherDisplay:10.37,2013-02-22 05:05:00,
2013-02-22 00:06:00,38.9,35.4,30.21,East,101,2.3,2.3,87,0.13,RA,,0.01,WeatherDisplay:10.37,2013-02-22 05:06:00,
2013-02-22 00:10:00,38.7,35.5,30.21,ESE,110,2.3,2.3,88,0.13,RA,,0.02,WeatherDisplay:10.37,2013-02-22 05:10:00,
2013-02-22 00:11:00,38.7,35.5,30.21,SE,125,2.3,2.3,88,0.13,RA,,0.02,WeatherDisplay:10.37,2013-02-22 05:11:00,
2013-02-22 00:15:00,38.5,35.3,30.21,SE,127,1.1,0.0,88,0.12,RA,,0.02,WeatherDisplay:10.37,2013-02-22 05:15:00,
2013-02-22 00:16:00,38.5,35.3,30.21,SE,127,0.0,0.0,88,0.12,RA,,0.02,WeatherDisplay:10.37,2013-02-22 05:16:00,
2013-02-22 00:21:00,38.4,35.4,30.21,SE,141,2.3,2.3,89,0.13,RA,,0.03,WeatherDisplay:10.37,2013-02-22 05:21:00,
2013-02-22 00:26:00,38.4,35.4,30.21,SE,129,2.3,2.3,89,0.12,RA,,0.04,WeatherDisplay:10.37,2013-02-22 05:26:00,
2013-02-22 00:27:00,38.4,35.4,30.20,ESE,103,2.3,2.3,89,0.11,RA,,0.04,WeatherDisplay:10.37,2013-02-22 05:27:00,
2013-02-22 00:31:00,38.5,35.5,30.20,East,81,8.1,8.1,89,0.10,RA,,0.04,WeatherDisplay:10.37,2013-02-22 05:31:00,
2013-02-22 00:32:00,38.5,35.5,30.20,ENE,65,5.8,5.8,89,0.10,RA,,0.04,WeatherDisplay:10.37,2013-02-22 05:32:00,
2013-02-22 00:36:00,38.6,35.4,30.20,ESE,122,4.6,4.6,88,0.10,RA,,0.05,WeatherDisplay:10.37,2013-02-22 05:36:00,
2013-02-22 00:37:00,38.6,35.4,30.20,ESE,114,6.9,6.9,88,0.10,RA,,0.05,WeatherDisplay:10.37,2013-02-22 05:37:00,
2013-02-22 00:41:00,38.6,35.4,30.19,SE,142,8.1,8.1,88,0.09,RA,,0.05,WeatherDisplay:10.37,2013-02-22 05:41:00,
2013-02-22 00:42:00,38.6,35.4,30.19,East,98,8.1,8.1,88,0.09,RA,,0.05,WeatherDisplay:10.37,2013-02-22 05:42:00,
2013-02-22 00:43:00,38.6,35.4,30.19,East,94,8.1,8.1,88,0.09,RA,,0.05,WeatherDisplay:10.37,2013-02-22 05:43:00,
2013-02-22 00:46:00,38.5,35.3,30.19,East,88,4.6,4.6,88,0.08,CLR,,0.05,WeatherDisplay:10.37,2013-02-22 05:46:00,
2013-02-22 00:47:00,38.5,35.3,30.20,SSE,163,4.6,4.6,88,0.08,CLR,,0.05,WeatherDisplay:10.37,2013-02-22 05:47:00,
2013-02-22 00:48:00,38.5,35.3,30.20,ESE,118,4.0,4.0,88,0.07,CLR,,0.05,WeatherDisplay:10.37,2013-02-22 05:48:00,
2013-02-22 00:49:00,38.5,35.3,30.20,East,99,3.5,3.5,88,0.07,CLR,,0.05,WeatherDisplay:10.37,2013-02-22 05:49:00,
2013-02-22 00:51:00,38.5,35.3,30.21,ESE,121,5.8,5.8,88,0.08,RA,,0.06,WeatherDisplay:10.37,2013-02-22 05:51:00,
2013-02-22 00:53:00,38.5,35.3,30.21,SE,126,5.0,5.0,88,0.07,RA,,0.06,WeatherDisplay:10.37,2013-02-22 05:53:00,
2013-02-22 00:54:00,38.6,35.4,30.21,East,87,4.6,4.6,88,0.07,RA,,0.06,WeatherDisplay:10.37,2013-02-22 05:54:00,
2013-02-22 00:56:00,38.6,35.4,30.22,SE,146,2.3,2.3,88,0.07,RA,,0.06,WeatherDisplay:10.37,2013-02-22 05:56:00,
2013-02-22 00:58:00,38.6,35.4,30.22,ESE,112,4.6,4.6,88,0.06,RA,,0.06,WeatherDisplay:10.37,2013-02-22 05:58:00,
2013-02-22 01:00:00,38.6,35.4,30.22,ESE,114,3.5,3.5,88,0.06,RA,,0.06,WeatherDisplay:10.37,2013-02-22 06:00:00,
2013-02-22 01:02:00,38.7,35.5,30.21,East,80,6.0,6.0,88,0.06,CLR,,0.06,WeatherDisplay:10.37,2013-02-22 06:02:00,
2013-02-22 01:03:00,38.7,35.5,30.21,East,81,5.8,5.8,88,0.05,CLR,,0.06,WeatherDisplay:10.37,2013-02-22 06:03:00,
2013-02-22 01:05:00,38.7,35.5,30.21,SE,133,3.5,3.5,88,0.06,RA,,0.07,WeatherDisplay:10.37,2013-02-22 06:05:00,
2013-02-22 01:07:00,38.7,35.5,30.21,East,91,4.6,4.6,88,0.06,RA,,0.07,WeatherDisplay:10.37,2013-02-22 06:07:00,
2013-02-22 01:08:00,38.7,35.5,30.21,East,94,4.6,4.6,88,0.06,RA,,0.07,WeatherDisplay:10.37,2013-02-22 06:08:00,
2013-02-22 01:10:00,38.6,35.4,30.22,East,93,5.0,5.0,88,0.05,RA,,0.07,WeatherDisplay:10.37,2013-02-22 06:10:00,
2013-02-22 01:12:00,38.6,35.4,30.22,ENE,71,3.5,3.5,88,0.06,RA,,0.08,WeatherDisplay:10.37,2013-02-22 06:12:00,
2013-02-22 01:13:00,38.6,35.4,30.22,East,87,7.0,7.0,88,0.06,RA,,0.08,WeatherDisplay:10.37,2013-02-22 06:13:00,
2013-02-22 01:15:00,38.5,35.3,30.22,ESE,114,3.5,3.5,88,0.06,RA,,0.08,WeatherDisplay:10.37,2013-02-22 06:15:00,
2013-02-22 01:17:00,38.5,35.5,30.22,East,94,5.0,5.0,89,0.06,RA,,0.08,WeatherDisplay:10.37,2013-02-22 06:17:00,
2013-02-22 01:18:00,38.5,35.5,30.21,East,80,5.8,5.8,89,0.06,RA,,0.08,WeatherDisplay:10.37,2013-02-22 06:18:00,
2013-02-22 01:20:00,38.4,35.4,30.21,East,96,7.0,7.0,89,0.05,RA,,0.08,WeatherDisplay:10.37,2013-02-22 06:20:00,
2013-02-22 01:22:00,38.4,35.4,30.21,East,91,7.0,7.0,89,0.06,RA,,0.09,WeatherDisplay:10.37,2013-02-22 06:22:00,
2013-02-22 01:24:00,38.4,35.4,30.22,ESE,112,3.5,3.5,89,0.06,RA,,0.09,WeatherDisplay:10.37,2013-02-22 06:24:00,
2013-02-22 01:25:00,38.4,35.4,30.21,SSE,149,4.6,4.6,89,0.05,RA,,0.09,WeatherDisplay:10.37,2013-02-22 06:25:00,
2013-02-22 01:27:00,38.3,35.3,30.21,East,85,4.0,4.0,89,0.05,RA,,0.10,WeatherDisplay:10.37,2013-02-22 06:27:00,
2013-02-22 01:29:00,38.3,35.3,30.21,SE,130,3.5,3.5,89,0.06,RA,,0.10,WeatherDisplay:10.37,2013-02-22 06:29:00,
2013-02-22 01:31:00,38.2,35.5,30.21,ESE,106,4.0,4.0,90,0.06,RA,,0.10,WeatherDisplay:10.37,2013-02-22 06:31:00,
2013-02-22 01:33:00,38.2,35.5,30.20,ESE,115,4.6,4.6,90,0.06,RA,,0.11,WeatherDisplay:10.37,2013-02-22 06:33:00,
2013-02-22 01:34:00,38.1,35.4,30.21,ESE,109,3.5,3.5,90,0.07,RA,,0.11,WeatherDisplay:10.37,2013-02-22 06:34:00,
2013-02-22 01:36:00,38.1,35.4,30.21,SE,144,2.3,2.3,90,0.06,RA,,0.11,WeatherDisplay:10.37,2013-02-22 06:36:00,
2013-02-22 01:38:00,38.1,35.4,30.21,SE,133,3.5,3.5,90,0.06,RA,,0.11,WeatherDisplay:10.37,2013-02-22 06:38:00,
2013-02-22 01:39:00,38.1,35.7,30.21,East,96,3.5,3.5,91,0.07,RA,,0.12,WeatherDisplay:10.37,2013-02-22 06:39:00,
2013-02-22 01:41:00,38.0,35.6,30.21,ESE,111,4.0,4.0,91,0.07,RA,,0.12,WeatherDisplay:10.37,2013-02-22 06:41:00,
2013-02-22 01:43:00,38.1,35.7,30.20,East,83,4.6,4.6,91,0.07,RA,,0.13,WeatherDisplay:10.37,2013-02-22 06:43:00,
2013-02-22 01:44:00,38.1,35.7,30.20,East,88,4.0,4.0,91,0.08,RA,,0.13,WeatherDisplay:10.37,2013-02-22 06:44:00,
2013-02-22 01:47:00,38.0,35.6,30.20,East,91,5.0,5.0,91,0.08,RA,,0.13,WeatherDisplay:10.37,2013-02-22 06:47:00,
2013-02-22 01:48:00,38.1,35.7,30.20,SE,125,4.6,4.6,91,0.08,RA,,0.14,WeatherDisplay:10.37,2013-02-22 06:48:00,
2013-02-22 01:49:00,38.1,35.7,30.20,East,82,3.5,3.5,91,0.09,RA,,0.14,WeatherDisplay:10.37,2013-02-22 06:49:00,
2013-02-22 01:51:00,38.1,35.7,30.20,East,82,5.0,5.0,91,0.08,RA,,0.14,WeatherDisplay:10.37,2013-02-22 06:51:00,
2013-02-22 01:52:00,38.1,35.7,30.20,ENE,74,5.8,5.8,91,0.08,RA,,0.14,WeatherDisplay:10.37,2013-02-22 06:52:00,
2013-02-22 01:53:00,38.1,35.7,30.20,East,87,4.6,4.6,91,0.08,RA,,0.15,WeatherDisplay:10.37,2013-02-22 06:53:00,
2013-02-22 01:54:00,38.1,35.7,30.20,East,82,5.0,5.3,91,0.09,RA,,0.15,WeatherDisplay:10.37,2013-02-22 06:54:00,
2013-02-22 01:57:00,38.1,35.7,30.19,East,91,6.0,6.0,91,0.09,RA,,0.15,WeatherDisplay:10.37,2013-02-22 06:57:00,
2013-02-22 01:58:00,38.1,35.7,30.19,ESE,113,6.9,6.9,91,0.09,RA,,0.15,WeatherDisplay:10.37,2013-02-22 06:58:00,
2013-02-22 01:59:00,38.1,35.7,30.19,East,96,6.9,6.9,91,0.09,RA,,0.15,WeatherDisplay:10.37,2013-02-22 06:59:00,
2013-02-22 02:00:00,38.1,35.7,30.19,East,90,8.1,8.1,91,0.10,RA,,0.16,WeatherDisplay:10.37,2013-02-22 07:00:00,
2013-02-22 02:02:00,38.1,35.7,30.19,ESE,113,8.1,8.1,91,0.10,RA,,0.16,WeatherDisplay:10.37,2013-02-22 07:02:00,
2013-02-22 02:04:00,38.1,35.7,30.19,ESE,103,5.8,5.8,91,0.10,RA,,0.16,WeatherDisplay:10.37,2013-02-22 07:04:00,
2013-02-22 02:05:00,38.1,35.7,30.20,ENE,78,6.9,6.9,91,0.09,RA,,0.16,WeatherDisplay:10.37,2013-02-22 07:05:00,
2013-02-22 02:08:00,38.1,35.7,30.19,East,101,4.6,4.6,91,0.10,RA,,0.17,WeatherDisplay:10.37,2013-02-22 07:08:00,
2013-02-22 02:09:00,38.1,35.7,30.19,East,88,5.8,5.8,91,0.10,RA,,0.17,WeatherDisplay:10.37,2013-02-22 07:09:00,
2013-02-22 02:10:00,38.1,35.7,30.19,SE,137,5.8,5.8,91,0.10,RA,,0.17,WeatherDisplay:10.37,2013-02-22 07:10:00,
2013-02-22 02:13:00,38.0,35.6,30.15,SE,127,8.1,8.1,91,0.10,RA,,0.18,WeatherDisplay:10.37,2013-02-22 07:13:00,
2013-02-22 02:14:00,38.0,35.6,30.14,SSE,161,9.2,9.2,91,0.10,RA,,0.18,WeatherDisplay:10.37,2013-02-22 07:14:00,
2013-02-22 02:15:00,37.9,35.5,30.14,SE,137,8.1,8.1,91,0.10,RA,,0.18,WeatherDisplay:10.37,2013-02-22 07:15:00,
2013-02-22 02:18:00,37.9,35.5,30.14,SE,130,4.6,4.6,91,0.10,RA,,0.18,WeatherDisplay:10.37,2013-02-22 07:18:00,
2013-02-22 02:19:00,37.9,35.5,30.14,East,89,4.6,4.6,91,0.10,RA,,0.18,WeatherDisplay:10.37,2013-02-22 07:19:00,
2013-02-22 02:20:00,37.9,35.5,30.16,ESE,123,4.6,4.6,91,0.10,RA,,0.18,WeatherDisplay:10.37,2013-02-22 07:20:00,
2013-02-22 02:23:00,38.0,35.6,30.17,SE,143,6.0,6.0,91,0.10,RA,,0.19,WeatherDisplay:10.37,2013-02-22 07:23:00,
2013-02-22 02:25:00,38.1,35.7,30.17,East,89,8.1,8.1,91,0.10,RA,,0.19,WeatherDisplay:10.37,2013-02-22 07:25:00,
2013-02-22 02:30:00,38.2,35.5,30.16,East,79,8.1,8.1,90,0.09,RA,,0.19,WeatherDisplay:10.37,2013-02-22 07:30:00,
2013-02-22 02:31:00,38.2,35.5,30.15,ESE,105,10.4,10.4,90,0.09,CLR,,0.19,WeatherDisplay:10.37,2013-02-22 07:31:00,
2013-02-22 02:35:00,38.1,35.4,30.15,ESE,116,10.4,10.4,90,0.08,CLR,,0.19,WeatherDisplay:10.37,2013-02-22 07:35:00,
2013-02-22 02:36:00,38.1,35.4,30.15,East,82,9.2,9.2,90,0.08,CLR,,0.19,WeatherDisplay:10.37,2013-02-22 07:36:00,
2013-02-22 02:41:00,37.9,35.2,30.14,ENE,77,10.4,10.4,90,0.07,CLR,,0.19,WeatherDisplay:10.37,2013-02-22 07:41:00,
2013-02-22 02:42:00,37.9,35.2,30.14,East,82,6.9,6.9,90,0.07,CLR,,0.19,WeatherDisplay:10.37,2013-02-22 07:42:00,
2013-02-22 02:46:00,37.7,35.0,30.13,East,99,8.1,8.1,90,0.06,CLR,,0.19,WeatherDisplay:10.37,2013-02-22 07:46:00,
2013-02-22 02:47:00,37.7,35.0,30.12,East,87,9.2,9.2,90,0.06,CLR,,0.19,WeatherDisplay:10.37,2013-02-22 07:47:00,
2013-02-22 02:51:00,37.6,35.2,30.11,East,91,12.7,12.7,91,0.05,CLR,,0.19,WeatherDisplay:10.37,2013-02-22 07:51:00,
2013-02-22 02:52:00,37.6,34.9,30.12,East,96,10.4,10.4,90,0.05,CLR,,0.19,WeatherDisplay:10.37,2013-02-22 07:52:00,
2013-02-22 02:53:00,37.6,34.9,30.13,ENE,58,10.4,10.4,90,0.05,CLR,,0.19,WeatherDisplay:10.37,2013-02-22 07:53:00,
2013-02-22 02:56:00,37.6,34.9,30.13,East,91,5.8,5.8,90,0.04,CLR,,0.19,WeatherDisplay:10.37,2013-02-22 07:56:00,
2013-02-22 02:57:00,37.6,34.9,30.13,East,98,8.1,8.1,90,0.04,CLR,,0.19,WeatherDisplay:10.37,2013-02-22 07:57:00,
2013-02-22 02:58:00,37.6,34.9,30.12,East,82,6.0,6.0,90,0.04,CLR,,0.19,WeatherDisplay:10.37,2013-02-22 07:58:00,
2013-02-22 03:01:00,37.6,34.9,30.14,ESE,105,5.8,5.8,90,0.03,CLR,,0.19,WeatherDisplay:10.37,2013-02-22 08:01:00,
2013-02-22 03:02:00,37.6,34.9,30.14,ESE,108,4.6,4.6,90,0.03,CLR,,0.19,WeatherDisplay:10.37,2013-02-22 08:02:00,
2013-02-22 03:03:00,37.6,34.9,30.13,East,98,5.8,5.8,90,0.03,CLR,,0.19,WeatherDisplay:10.37,2013-02-22 08:03:00,
2013-02-22 03:07:00,37.6,34.9,30.12,East,83,8.1,8.1,90,0.03,CLR,,0.19,WeatherDisplay:10.37,2013-02-22 08:07:00,
2013-02-22 03:08:00,37.7,35.0,30.13,ESE,108,3.5,3.5,90,0.02,CLR,,0.19,WeatherDisplay:10.37,2013-02-22 08:08:00,
2013-02-22 03:12:00,37.6,34.9,30.12,East,80,7.0,7.0,90,0.02,CLR,,0.19,WeatherDisplay:10.37,2013-02-22 08:12:00,
2013-02-22 03:13:00,37.6,34.9,30.12,ESE,111,6.9,6.9,90,0.01,CLR,,0.19,WeatherDisplay:10.37,2013-02-22 08:13:00,
2013-02-22 03:14:00,37.6,34.9,30.12,East,94,7.0,7.0,90,0.01,CLR,,0.19,WeatherDisplay:10.37,2013-02-22 08:14:00,
2013-02-22 03:17:00,37.6,34.9,30.13,East,83,5.8,5.8,90,0.01,CLR,,0.19,WeatherDisplay:10.37,2013-02-22 08:17:00,
2013-02-22 03:19:00,37.6,34.9,30.13,East,92,4.6,4.6,90,0.01,CLR,,0.19,WeatherDisplay:10.37,2013-02-22 08:19:00,
2013-02-22 03:22:00,37.6,34.9,30.12,East,84,5.8,5.8,90,0.00,CLR,,0.19,WeatherDisplay:10.37,2013-02-22 08:22:00,
2013-02-22 03:23:00,37.6,34.9,30.12,East,96,5.0,5.0,90,0.00,CLR,,0.19,WeatherDisplay:10.37,2013-02-22 08:23:00,
2013-02-22 03:24:00,37.6,34.9,30.12,East,85,6.9,6.9,90,0.00,CLR,,0.19,WeatherDisplay:10.37,2013-02-22 08:24:00,
2013-02-22 03:27:00,37.5,34.8,30.12,SE,125,4.0,4.0,90,0.00,CLR,,0.19,WeatherDisplay:10.37,2013-02-22 08:27:00,
2013-02-22 03:28:00,37.5,34.8,30.12,ESE,106,8.1,8.1,90,0.00,CLR,,0.19,WeatherDisplay:10.37,2013-02-22 08:28:00,
2013-02-22 03:29:00,37.5,34.8,30.12,ESE,110,6.0,6.0,90,0.00,CLR,,0.19,WeatherDisplay:10.37,2013-02-22 08:29:00,
2013-02-22 03:30:00,37.5,34.8,30.12,East,94,6.9,6.9,90,0.00,CLR,,0.19,WeatherDisplay:10.37,2013-02-22 08:30:00,
2013-02-22 03:32:00,37.4,34.7,30.12,ESE,103,6.9,6.9,90,0.00,CLR,,0.19,WeatherDisplay:10.37,2013-02-22 08:32:00,
2013-02-22 03:34:00,37.4,34.7,30.12,East,81,6.9,6.9,90,0.00,CLR,,0.19,WeatherDisplay:10.37,2013-02-22 08:34:00,
2013-02-22 03:35:00,37.4,34.7,30.12,East,96,5.8,5.8,90,0.00,CLR,,0.19,WeatherDisplay:10.37,2013-02-22 08:35:00,
2013-02-22 03:37:00,37.3,34.6,30.12,East,89,6.9,6.9,90,0.00,CLR,,0.19,WeatherDisplay:10.37,2013-02-22 08:37:00,
2013-02-22 03:39:00,37.3,34.6,30.12,ESE,103,5.8,5.8,90,0.00,CLR,,0.19,WeatherDisplay:10.37,2013-02-22 08:39:00,
2013-02-22 03:40:00,37.3,34.6,30.12,East,88,5.0,5.0,90,0.00,CLR,,0.19,WeatherDisplay:10.37,2013-02-22 08:40:00,
2013-02-22 03:42:00,37.3,34.6,30.12,East,81,7.0,7.0,90,0.00,CLR,,0.19,WeatherDisplay:10.37,2013-02-22 08:42:00,
2013-02-22 03:44:00,37.4,34.7,30.12,East,91,8.1,8.1,90,0.00,CLR,,0.19,WeatherDisplay:10.37,2013-02-22 08:44:00,
2013-02-22 03:45:00,37.3,34.6,30.12,ESE,120,5.8,5.8,90,0.00,CLR,,0.19,WeatherDisplay:10.37,2013-02-22 08:45:00,
2013-02-22 03:46:00,37.4,34.7,30.12,ESE,114,6.9,6.9,90,0.00,CLR,,0.19,WeatherDisplay:10.37,2013-02-22 08:46:00,
2013-02-22 03:47:00,37.4,34.7,30.12,East,87,5.8,5.8,90,0.00,CLR,,0.19,WeatherDisplay:10.37,2013-02-22 08:47:00,
2013-02-22 03:50:00,37.5,34.8,30.12,ESE,109,3.5,3.5,90,0.00,CLR,,0.19,WeatherDisplay:10.37,2013-02-22 08:50:00,
2013-02-22 03:51:00,37.5,34.8,30.12,East,80,3.5,3.5,90,0.00,CLR,,0.19,WeatherDisplay:10.37,2013-02-22 08:51:00,
2013-02-22 03:52:00,37.5,34.8,30.12,East,90,4.0,4.0,90,0.00,CLR,,0.19,WeatherDisplay:10.37,2013-02-22 08:52:00,
2013-02-22 03:55:00,37.5,34.8,30.11,East,94,4.6,4.6,90,0.00,CLR,,0.19,WeatherDisplay:10.37,2013-02-22 08:55:00,
2013-02-22 03:56:00,37.5,34.8,30.11,ESE,103,4.6,4.6,90,0.00,CLR,,0.19,WeatherDisplay:10.37,2013-02-22 08:56:00,
2013-02-22 03:57:00,37.5,34.8,30.11,SE,129,5.8,5.8,90,0.00,CLR,,0.19,WeatherDisplay:10.37,2013-02-22 08:57:00,
2013-02-22 03:58:00,37.5,34.8,30.11,SE,125,5.8,5.8,90,0.00,CLR,,0.19,WeatherDisplay:10.37,2013-02-22 08:58:00,
2013-02-22 04:00:00,37.6,34.9,30.11,East,89,5.8,5.8,90,0.00,CLR,,0.19,WeatherDisplay:10.37,2013-02-22 09:00:00,
2013-02-22 04:01:00,37.7,35.0,30.11,SSE,149,4.6,4.6,90,0.00,CLR,,0.19,WeatherDisplay:10.37,2013-02-22 09:01:00,
2013-02-22 04:03:00,37.7,35.0,30.11,East,89,3.5,3.5,90,0.00,CLR,,0.19,WeatherDisplay:10.37,2013-02-22 09:03:00,
2013-02-22 04:05:00,37.7,35.0,30.11,East,89,3.5,3.5,90,0.00,CLR,,0.19,WeatherDisplay:10.37,2013-02-22 09:05:00,
2013-02-22 04:06:00,37.7,35.0,30.10,East,91,6.9,6.9,90,0.00,CLR,,0.19,WeatherDisplay:10.37,2013-02-22 09:06:00,
2013-02-22 04:08:00,37.7,35.0,30.11,South,170,5.8,5.8,90,0.00,CLR,,0.19,WeatherDisplay:10.37,2013-02-22 09:08:00,
2013-02-22 04:09:00,37.7,35.0,30.11,SE,127,3.5,3.5,90,0.00,CLR,,0.19,WeatherDisplay:10.37,2013-02-22 09:09:00,
2013-02-22 04:11:00,37.7,35.0,30.11,ENE,67,5.0,5.0,90,0.00,CLR,,0.19,WeatherDisplay:10.37,2013-02-22 09:11:00,
2013-02-22 04:13:00,37.8,35.1,30.11,East,99,3.5,3.5,90,0.01,RA,,0.20,WeatherDisplay:10.37,2013-02-22 09:13:00,
2013-02-22 04:15:00,37.9,35.5,30.11,NNW,345,3.5,3.5,91,0.01,RA,,0.20,WeatherDisplay:10.37,2013-02-22 09:15:00,
2013-02-22 04:16:00,38.0,35.6,30.11,South,171,2.3,2.3,91,0.01,RA,,0.20,WeatherDisplay:10.37,2013-02-22 09:16:00,
2013-02-22 04:18:00,38.0,35.6,30.11,ESE,105,2.3,2.3,91,0.01,RA,,0.20,WeatherDisplay:10.37,2013-02-22 09:18:00,
2013-02-22 04:20:00,38.1,35.7,30.10,SE,133,2.3,2.3,91,0.01,RA,,0.20,WeatherDisplay:10.37,2013-02-22 09:20:00,
2013-02-22 04:21:00,38.1,35.7,30.10,East,84,3.5,3.5,91,0.01,RA,,0.20,WeatherDisplay:10.37,2013-02-22 09:21:00,
2013-02-22 04:24:00,38.3,35.9,30.10,ESE,103,5.0,5.0,91,0.01,CLR,,0.20,WeatherDisplay:10.37,2013-02-22 09:24:00,
2013-02-22 04:25:00,38.3,35.9,30.10,SE,132,6.9,6.9,91,0.01,CLR,,0.20,WeatherDisplay:10.37,2013-02-22 09:25:00,
2013-02-22 04:26:00,38.4,36.0,30.10,East,89,4.6,4.6,91,0.01,CLR,,0.20,WeatherDisplay:10.37,2013-02-22 09:26:00,
2013-02-22 04:27:00,38.4,36.0,30.10,ESE,109,4.6,4.6,91,0.01,CLR,,0.20,WeatherDisplay:10.37,2013-02-22 09:27:00,
2013-02-22 04:29:00,38.5,36.1,30.11,ESE,109,1.1,1.1,91,0.01,CLR,,0.20,WeatherDisplay:10.37,2013-02-22 09:29:00,
2013-02-22 04:30:00,38.5,36.1,30.11,SE,141,3.5,3.5,91,0.01,CLR,,0.20,WeatherDisplay:10.37,2013-02-22 09:30:00,
2013-02-22 04:32:00,38.5,36.1,30.10,SE,133,3.5,3.5,91,0.01,CLR,,0.20,WeatherDisplay:10.37,2013-02-22 09:32:00,
2013-02-22 04:34:00,38.5,36.1,30.10,SE,141,3.5,3.5,91,0.01,CLR,,0.20,WeatherDisplay:10.37,2013-02-22 09:34:00,
2013-02-22 04:35:00,38.6,36.2,30.10,SE,127,3.5,3.5,91,0.01,CLR,,0.20,WeatherDisplay:10.37,2013-02-22 09:35:00,
2013-02-22 04:37:00,38.6,36.2,30.10,ESE,108,4.0,4.0,91,0.01,CLR,,0.20,WeatherDisplay:10.37,2013-02-22 09:37:00,
2013-02-22 04:39:00,38.6,36.2,30.10,East,98,4.6,4.6,91,0.01,CLR,,0.20,WeatherDisplay:10.37,2013-02-22 09:39:00,
2013-02-22 04:41:00,38.7,36.3,30.10,East,90,4.6,4.6,91,0.01,CLR,,0.20,WeatherDisplay:10.37,2013-02-22 09:41:00,
2013-02-22 04:43:00,38.7,36.3,30.10,East,94,3.5,3.5,91,0.01,CLR,,0.20,WeatherDisplay:10.37,2013-02-22 09:43:00,
2013-02-22 04:44:00,38.7,36.6,30.10,East,80,4.6,4.6,92,0.01,CLR,,0.20,WeatherDisplay:10.37,2013-02-22 09:44:00,
2013-02-22 04:46:00,38.8,36.7,30.10,East,87,3.0,3.0,92,0.01,CLR,,0.20,WeatherDisplay:10.37,2013-02-22 09:46:00,
2013-02-22 04:48:00,38.9,36.8,30.10,East,98,3.5,3.5,92,0.01,CLR,,0.20,WeatherDisplay:10.37,2013-02-22 09:48:00,
2013-02-22 04:49:00,39.0,36.9,30.10,ENE,78,4.6,4.6,92,0.01,CLR,,0.20,WeatherDisplay:10.37,2013-02-22 09:49:00,
2013-02-22 04:52:00,39.2,36.8,30.10,SE,129,3.5,3.5,91,0.01,CLR,,0.20,WeatherDisplay:10.37,2013-02-22 09:52:00,
2013-02-22 04:53:00,39.3,36.9,30.10,ESE,110,3.5,3.5,91,0.01,CLR,,0.20,WeatherDisplay:10.37,2013-02-22 09:53:00,
2013-02-22 04:54:00,39.3,36.9,30.10,East,91,3.5,3.5,91,0.01,CLR,,0.20,WeatherDisplay:10.37,2013-02-22 09:54:00,
2013-02-22 04:55:00,39.3,36.9,30.10,SSE,149,2.3,2.3,91,0.01,CLR,,0.20,WeatherDisplay:10.37,2013-02-22 09:55:00,
2013-02-22 04:57:00,39.3,36.9,30.10,East,98,4.6,4.6,91,0.01,CLR,,0.20,WeatherDisplay:10.37,2013-02-22 09:57:00,
2013-02-22 04:59:00,39.3,36.9,30.10,East,85,3.5,3.5,91,0.01,CLR,,0.20,WeatherDisplay:10.37,2013-02-22 09:59:00,
2013-02-22 05:00:00,39.3,36.9,30.10,SE,126,3.5,3.5,91,0.01,CLR,,0.20,WeatherDisplay:10.37,2013-02-22 10:00:00,
2013-02-22 05:02:00,39.4,37.0,30.10,East,84,3.5,3.5,91,0.01,CLR,,0.20,WeatherDisplay:10.37,2013-02-22 10:02:00,
2013-02-22 05:04:00,39.4,37.0,30.10,SSE,167,3.5,3.5,91,0.01,CLR,,0.20,WeatherDisplay:10.37,2013-02-22 10:04:00,
2013-02-22 05:05:00,39.4,37.0,30.10,ENE,77,3.5,3.5,91,0.01,CLR,,0.20,WeatherDisplay:10.37,2013-02-22 10:05:00,
2013-02-22 05:07:00,39.4,37.0,30.10,East,95,3.5,3.5,91,0.01,CLR,,0.20,WeatherDisplay:10.37,2013-02-22 10:07:00,
2013-02-22 05:09:00,39.5,37.1,30.10,East,96,3.5,3.5,91,0.01,CLR,,0.20,WeatherDisplay:10.37,2013-02-22 10:09:00,
2013-02-22 05:10:00,39.5,37.1,30.10,East,82,4.6,4.6,91,0.01,CLR,,0.20,WeatherDisplay:10.37,2013-02-22 10:10:00,
2013-02-22 05:12:00,39.5,36.8,30.10,ESE,108,3.5,3.5,90,0.01,CLR,,0.20,WeatherDisplay:10.37,2013-02-22 10:12:00,
2013-02-22 05:14:00,39.5,36.8,30.10,East,95,4.6,4.6,90,0.00,CLR,,0.20,WeatherDisplay:10.37,2013-02-22 10:14:00,
2013-02-22 05:15:00,39.5,36.8,30.10,ESE,122,2.3,2.3,90,0.00,CLR,,0.20,WeatherDisplay:10.37,2013-02-22 10:15:00,
2013-02-22 05:18:00,39.6,36.9,30.10,ESE,111,3.5,3.5,90,0.00,CLR,,0.20,WeatherDisplay:10.37,2013-02-22 10:18:00,
2013-02-22 05:20:00,39.6,36.9,30.10,SSE,154,2.3,2.3,90,0.00,CLR,,0.20,WeatherDisplay:10.37,2013-02-22 10:20:00,
2013-02-22 05:23:00,39.6,36.9,30.09,ESE,106,3.5,3.5,90,0.00,CLR,,0.20,WeatherDisplay:10.37,2013-02-22 10:23:00,
2013-02-22 05:25:00,39.6,36.9,30.09,East,101,4.6,4.6,90,0.00,CLR,,0.20,WeatherDisplay:10.37,2013-02-22 10:25:00,
2013-02-22 05:28:00,39.7,37.0,30.10,ESE,109,3.5,3.5,90,0.00,CLR,,0.20,WeatherDisplay:10.37,2013-02-22 10:28:00,
2013-02-22 05:30:00,39.7,37.0,30.10,East,84,2.3,2.3,90,0.00,CLR,,0.20,WeatherDisplay:10.37,2013-02-22 10:30:00,
2013-02-22 05:31:00,39.7,37.0,30.10,ESE,112,4.0,4.0,90,0.00,CLR,,0.20,WeatherDisplay:10.37,2013-02-22 10:31:00,
2013-02-22 05:33:00,39.8,36.8,30.10,ESE,123,4.6,4.6,89,0.00,CLR,,0.20,WeatherDisplay:10.37,2013-02-22 10:33:00,
2013-02-22 05:35:00,39.9,36.9,30.10,ESE,108,2.3,2.3,89,0.00,CLR,,0.20,WeatherDisplay:10.37,2013-02-22 10:35:00,
2013-02-22 05:36:00,39.9,36.9,30.10,East,91,6.0,6.0,89,0.00,CLR,,0.20,WeatherDisplay:10.37,2013-02-22 10:36:00,
2013-02-22 05:39:00,39.9,36.9,30.10,East,89,3.5,3.5,89,0.00,CLR,,0.20,WeatherDisplay:10.37,2013-02-22 10:39:00,
2013-02-22 05:40:00,40.0,37.0,30.10,East,79,3.5,3.5,89,0.00,CLR,,0.20,WeatherDisplay:10.37,2013-02-22 10:40:00,
2013-02-22 05:41:00,40.0,36.7,30.10,ESE,113,4.6,4.6,88,0.00,CLR,,0.20,WeatherDisplay:10.37,2013-02-22 10:41:00,
2013-02-22 05:44:00,40.1,36.8,30.10,East,82,4.6,4.6,88,0.00,CLR,,0.20,WeatherDisplay:10.37,2013-02-22 10:44:00,
2013-02-22 05:45:00,40.1,36.8,30.10,East,95,4.6,4.6,88,0.00,CLR,,0.20,WeatherDisplay:10.37,2013-02-22 10:45:00,
2013-02-22 05:46:00,40.1,36.8,30.11,East,91,5.0,5.0,88,0.00,CLR,,0.20,WeatherDisplay:10.37,2013-02-22 10:46:00,
2013-02-22 05:49:00,40.2,36.6,30.10,East,79,5.0,5.0,87,0.00,CLR,,0.20,WeatherDisplay:10.37,2013-02-22 10:49:00,
2013-02-22 05:51:00,40.2,36.6,30.10,SE,130,3.5,3.5,87,0.00,CLR,,0.20,WeatherDisplay:10.37,2013-02-22 10:51:00,
2013-02-22 05:52:00,40.2,36.6,30.11,ENE,70,3.5,3.5,87,0.00,CLR,,0.20,WeatherDisplay:10.37,2013-02-22 10:52:00,
2013-02-22 05:54:00,40.2,36.6,30.11,East,94,5.0,5.0,87,0.00,CLR,,0.20,WeatherDisplay:10.37,2013-02-22 10:54:00,
2013-02-22 05:56:00,40.2,36.6,30.11,East,101,3.5,3.5,87,0.00,CLR,,0.20,WeatherDisplay:10.37,2013-02-22 10:56:00,
2013-02-22 05:57:00,40.2,36.6,30.11,East,85,4.0,4.0,87,0.00,CLR,,0.20,WeatherDisplay:10.37,2013-02-22 10:57:00,
2013-02-22 05:59:00,40.2,36.3,30.11,East,87,6.9,6.9,86,0.00,CLR,,0.20,WeatherDisplay:10.37,2013-02-22 10:59:00,
2013-02-22 06:01:00,40.3,36.4,30.11,East,94,3.5,3.5,86,0.00,CLR,,0.20,WeatherDisplay:10.37,2013-02-22 11:01:00,
2013-02-22 06:02:00,40.3,36.4,30.12,SE,133,3.5,3.5,86,0.00,CLR,,0.20,WeatherDisplay:10.37,2013-02-22 11:02:00,
2013-02-22 06:04:00,40.3,36.4,30.12,ESE,118,3.5,3.5,86,0.00,CLR,,0.20,WeatherDisplay:10.37,2013-02-22 11:04:00,
2013-02-22 06:06:00,40.3,36.4,30.12,ENE,78,3.5,3.5,86,0.00,CLR,,0.20,WeatherDisplay:10.37,2013-02-22 11:06:00,
2013-02-22 06:07:00,40.2,36.3,30.12,ESE,106,3.5,3.5,86,0.00,CLR,,0.20,WeatherDisplay:10.37,2013-02-22 11:07:00,
2013-02-22 06:08:00,40.2,36.3,30.12,East,88,3.5,3.5,86,0.00,CLR,,0.20,WeatherDisplay:10.37,2013-02-22 11:08:00,
2013-02-22 06:10:00,40.3,36.4,30.12,ESE,115,3.5,3.5,86,0.00,CLR,,0.20,WeatherDisplay:10.37,2013-02-22 11:10:00,
2013-02-22 06:12:00,40.2,36.3,30.12,SE,144,3.5,3.5,86,0.00,CLR,,0.20,WeatherDisplay:10.37,2013-02-22 11:12:00,
2013-02-22 06:13:00,40.2,36.3,30.12,East,80,3.5,3.5,86,0.00,CLR,,0.20,WeatherDisplay:10.37,2013-02-22 11:13:00,
2013-02-22 06:15:00,40.1,36.5,30.12,East,101,2.3,2.3,87,0.00,CLR,,0.20,WeatherDisplay:10.37,2013-02-22 11:15:00,
2013-02-22 06:17:00,40.1,36.2,30.12,East,88,3.5,3.5,86,0.00,CLR,,0.20,WeatherDisplay:10.37,2013-02-22 11:17:00,
2013-02-22 06:18:00,40.1,36.2,30.12,East,85,3.5,3.5,86,0.00,CLR,,0.20,WeatherDisplay:10.37,2013-02-22 11:18:00,
2013-02-22 06:20:00,40.1,36.2,30.12,ENE,71,4.6,4.6,86,0.00,CLR,,0.20,WeatherDisplay:10.37,2013-02-22 11:20:00,
2013-02-22 06:22:00,40.1,36.2,30.12,East,80,4.6,4.6,86,0.00,CLR,,0.20,WeatherDisplay:10.37,2013-02-22 11:22:00,
2013-02-22 06:23:00,40.1,36.5,30.12,East,91,3.5,3.5,87,0.00,CLR,,0.20,WeatherDisplay:10.37,2013-02-22 11:23:00,
2013-02-22 06:26:00,40.0,36.4,30.12,ENE,78,2.3,2.3,87,0.00,CLR,,0.20,WeatherDisplay:10.37,2013-02-22 11:26:00,
2013-02-22 06:27:00,40.1,36.2,30.12,East,92,5.0,5.0,86,0.00,CLR,,0.20,WeatherDisplay:10.37,2013-02-22 11:27:00,
2013-02-22 06:28:00,40.1,36.2,30.12,SE,136,5.8,5.8,86,0.00,CLR,,0.20,WeatherDisplay:10.37,2013-02-22 11:28:00,
2013-02-22 06:29:00,40.1,36.2,30.11,ESE,110,4.6,4.6,86,0.00,CLR,,0.20,WeatherDisplay:10.37,2013-02-22 11:29:00,
2013-02-22 06:31:00,40.2,36.3,30.11,ESE,118,3.5,3.5,86,0.00,CLR,,0.20,WeatherDisplay:10.37,2013-02-22 11:31:00,
2013-02-22 06:32:00,40.2,36.3,30.12,East,101,4.0,4.0,86,0.00,CLR,,0.20,WeatherDisplay:10.37,2013-02-22 11:32:00,
2013-02-22 06:33:00,40.1,36.2,30.11,East,90,3.5,3.5,86,0.00,CLR,,0.20,WeatherDisplay:10.37,2013-02-22 11:33:00,
2013-02-22 06:34:00,40.1,36.2,30.11,East,85,4.6,4.6,86,0.00,CLR,,0.20,WeatherDisplay:10.37,2013-02-22 11:34:00,
2013-02-22 06:36:00,40.1,36.5,30.12,East,82,2.3,2.3,87,0.01,RA,,0.21,WeatherDisplay:10.37,2013-02-22 11:36:00,
2013-02-22 06:38:00,40.1,36.5,30.12,East,88,3.5,3.5,87,0.01,RA,,0.21,WeatherDisplay:10.37,2013-02-22 11:38:00,
2013-02-22 06:39:00,40.0,36.4,30.12,SE,126,2.3,2.3,87,0.01,RA,,0.21,WeatherDisplay:10.37,2013-02-22 11:39:00,
2013-02-22 06:42:00,40.0,36.4,30.12,East,94,3.5,3.5,87,0.01,RA,,0.21,WeatherDisplay:10.37,2013-02-22 11:42:00,
2013-02-22 06:43:00,39.9,36.6,30.11,SE,133,3.5,3.5,88,0.01,RA,,0.21,WeatherDisplay:10.37,2013-02-22 11:43:00,
2013-02-22 06:44:00,39.9,36.6,30.11,SE,132,3.5,3.5,88,0.01,RA,,0.21,WeatherDisplay:10.37,2013-02-22 11:44:00,
2013-02-22 06:47:00,39.9,36.6,30.12,East,101,4.6,4.6,88,0.01,CLR,,0.21,WeatherDisplay:10.37,2013-02-22 11:47:00,
2013-02-22 06:48:00,39.8,36.5,30.11,ENE,64,2.3,2.3,88,0.01,CLR,,0.21,WeatherDisplay:10.37,2013-02-22 11:48:00,
2013-02-22 06:49:00,39.8,36.5,30.11,East,98,3.5,3.5,88,0.01,CLR,,0.21,WeatherDisplay:10.37,2013-02-22 11:49:00,
2013-02-22 06:50:00,39.8,36.5,30.11,East,92,3.5,3.5,88,0.01,CLR,,0.21,WeatherDisplay:10.37,2013-02-22 11:50:00,
2013-02-22 06:52:00,39.8,36.5,30.12,ESE,122,2.3,2.3,88,0.01,CLR,,0.21,WeatherDisplay:10.37,2013-02-22 11:52:00,
2013-02-22 06:53:00,39.8,36.5,30.12,ESE,110,2.3,2.3,88,0.01,CLR,,0.21,WeatherDisplay:10.37,2013-02-22 11:53:00,
2013-02-22 06:54:00,39.8,36.5,30.12,East,87,2.3,2.3,88,0.01,CLR,,0.21,WeatherDisplay:10.37,2013-02-22 11:54:00,
2013-02-22 06:55:00,39.8,36.5,30.12,SE,129,3.5,3.5,88,0.01,CLR,,0.21,WeatherDisplay:10.37,2013-02-22 11:55:00,
2013-02-22 06:57:00,39.7,36.4,30.12,East,84,2.3,2.3,88,0.01,CLR,,0.21,WeatherDisplay:10.37,2013-02-22 11:57:00,
2013-02-22 06:58:00,39.7,36.4,30.13,East,89,2.3,2.3,88,0.01,CLR,,0.21,WeatherDisplay:10.37,2013-02-22 11:58:00,
2013-02-22 06:59:00,39.7,36.4,30.13,East,101,2.3,2.3,88,0.01,CLR,,0.21,WeatherDisplay:10.37,2013-02-22 11:59:00,
2013-02-22 07:00:00,39.7,36.4,30.13,East,91,3.5,3.5,88,0.01,CLR,,0.21,WeatherDisplay:10.37,2013-02-22 12:00:00,
2013-02-22 07:02:00,39.8,36.8,30.13,East,87,3.5,3.5,89,0.01,CLR,,0.21,WeatherDisplay:10.37,2013-02-22 12:02:00,
2013-02-22 07:03:00,39.8,36.8,30.13,East,91,3.5,3.5,89,0.01,CLR,,0.21,WeatherDisplay:10.37,2013-02-22 12:03:00,
2013-02-22 07:04:00,39.8,36.8,30.13,East,101,1.1,1.1,89,0.01,CLR,,0.21,WeatherDisplay:10.37,2013-02-22 12:04:00,
2013-02-22 07:05:00,39.8,36.8,30.13,East,91,2.3,2.3,89,0.01,CLR,,0.21,WeatherDisplay:10.37,2013-02-22 12:05:00,
2013-02-22 07:07:00,39.8,36.8,30.12,ESE,119,3.5,3.5,89,0.01,CLR,,0.21,WeatherDisplay:10.37,2013-02-22 12:07:00,
2013-02-22 07:09:00,39.8,36.8,30.12,SE,131,2.3,2.3,89,0.01,CLR,,0.21,WeatherDisplay:10.37,2013-02-22 12:09:00,
2013-02-22 07:10:00,39.8,36.8,30.13,SE,131,2.3,2.3,89,0.01,CLR,,0.21,WeatherDisplay:10.37,2013-02-22 12:10:00,
2013-02-22 07:12:00,39.8,36.8,30.12,ESE,118,3.5,3.5,89,0.01,CLR,,0.21,WeatherDisplay:10.37,2013-02-22 12:12:00,
2013-02-22 07:14:00,39.8,36.8,30.12,East,91,3.5,3.5,89,0.01,CLR,,0.21,WeatherDisplay:10.37,2013-02-22 12:14:00,
2013-02-22 07:16:00,39.9,36.9,30.12,East,94,3.5,3.5,89,0.01,CLR,,0.21,WeatherDisplay:10.37,2013-02-22 12:16:00,
2013-02-22 07:17:00,39.9,36.9,30.12,East,96,3.5,3.5,89,0.01,CLR,,0.21,WeatherDisplay:10.37,2013-02-22 12:17:00,
2013-02-22 07:19:00,40.0,36.7,30.12,SE,136,3.5,3.5,88,0.01,CLR,,0.21,WeatherDisplay:10.37,2013-02-22 12:19:00,
2013-02-22 07:21:00,40.0,36.7,30.12,ENE,74,5.8,5.8,88,0.01,CLR,,0.21,WeatherDisplay:10.37,2013-02-22 12:21:00,
2013-02-22 07:22:00,40.0,36.7,30.12,East,87,5.0,5.0,88,0.01,CLR,,0.21,WeatherDisplay:10.37,2013-02-22 12:22:00,
2013-02-22 07:24:00,40.1,36.8,30.12,East,91,4.6,4.6,88,0.01,CLR,,0.21,WeatherDisplay:10.37,2013-02-22 12:24:00,
2013-02-22 07:26:00,40.1,36.8,30.12,East,93,5.8,5.8,88,0.01,CLR,,0.21,WeatherDisplay:10.37,2013-02-22 12:26:00,
2013-02-22 07:27:00,40.1,36.8,30.12,ENE,78,3.5,3.5,88,0.01,CLR,,0.21,WeatherDisplay:10.37,2013-02-22 12:27:00,
2013-02-22 07:30:00,40.1,36.8,30.12,ENE,58,3.0,3.0,88,0.01,CLR,,0.21,WeatherDisplay:10.37,2013-02-22 12:30:00,
2013-02-22 07:31:00,40.1,36.8,30.12,East,89,4.0,4.0,88,0.01,CLR,,0.21,WeatherDisplay:10.37,2013-02-22 12:31:00,
2013-02-22 07:32:00,40.1,36.8,30.12,SSE,150,4.6,4.6,88,0.01,CLR,,0.21,WeatherDisplay:10.37,2013-02-22 12:32:00,
2013-02-22 07:35:00,40.1,36.8,30.12,East,97,3.0,5.0,88,0.00,CLR,,0.21,WeatherDisplay:10.37,2013-02-22 12:35:00,
2013-02-22 07:37:00,40.2,36.9,30.12,East,91,5.0,5.0,88,0.00,CLR,,0.21,WeatherDisplay:10.37,2013-02-22 12:37:00,
2013-02-22 07:40:00,40.2,36.9,30.12,East,91,4.0,4.0,88,0.00,CLR,,0.21,WeatherDisplay:10.37,2013-02-22 12:40:00,
2013-02-22 07:42:00,40.2,36.9,30.12,East,99,4.6,4.6,88,0.00,CLR,,0.21,WeatherDisplay:10.37,2013-02-22 12:42:00,
2013-02-22 07:45:00,40.3,36.7,30.12,East,96,4.6,4.6,87,0.00,CLR,,0.21,WeatherDisplay:10.37,2013-02-22 12:45:00,
2013-02-22 07:47:00,40.3,36.7,30.12,East,87,4.6,4.6,87,0.00,CLR,,0.21,WeatherDisplay:10.37,2013-02-22 12:47:00,
2013-02-22 07:48:00,40.4,36.8,30.12,East,95,3.5,3.5,87,0.00,CLR,,0.21,WeatherDisplay:10.37,2013-02-22 12:48:00,
2013-02-22 07:50:00,40.4,36.8,30.12,ENE,61,3.5,3.5,87,0.00,CLR,,0.21,WeatherDisplay:10.37,2013-02-22 12:50:00,
2013-02-22 07:52:00,40.5,36.6,30.12,East,89,3.5,3.5,86,0.00,CLR,,0.21,WeatherDisplay:10.37,2013-02-22 12:52:00,
2013-02-22 07:53:00,40.4,36.5,30.12,East,101,3.5,3.5,86,0.00,CLR,,0.21,WeatherDisplay:10.37,2013-02-22 12:53:00,
2013-02-22 07:55:00,40.5,36.6,30.12,East,99,5.0,5.0,86,0.00,CLR,,0.21,WeatherDisplay:10.37,2013-02-22 12:55:00,
2013-02-22 07:56:00,40.5,36.6,30.12,East,91,4.6,4.6,86,0.00,CLR,,0.21,WeatherDisplay:10.37,2013-02-22 12:56:00,
2013-02-22 07:58:00,40.6,36.7,30.12,East,89,4.6,4.6,86,0.00,CLR,,0.21,WeatherDisplay:10.37,2013-02-22 12:58:00,
2013-02-22 08:00:00,40.6,36.7,30.12,East,89,4.6,4.6,86,0.00,CLR,,0.21,WeatherDisplay:10.37,2013-02-22 13:00:00,
2013-02-22 08:01:00,40.6,36.7,30.12,East,84,4.6,4.6,86,0.00,CLR,,0.21,WeatherDisplay:10.37,2013-02-22 13:01:00,
2013-02-22 08:03:00,40.6,37.0,30.12,East,96,3.5,3.5,87,0.00,CLR,,0.21,WeatherDisplay:10.37,2013-02-22 13:03:00,
2013-02-22 08:04:00,40.6,36.7,30.12,ESE,115,3.5,3.5,86,0.00,CLR,,0.21,WeatherDisplay:10.37,2013-02-22 13:04:00,
2013-02-22 08:06:00,40.6,36.7,30.12,East,91,6.9,6.9,86,0.00,CLR,,0.21,WeatherDisplay:10.37,2013-02-22 13:06:00,
2013-02-22 08:08:00,40.7,36.8,30.12,East,80,4.6,4.6,86,0.00,CLR,,0.21,WeatherDisplay:10.37,2013-02-22 13:08:00,
2013-02-22 08:09:00,40.7,36.8,30.12,East,91,4.6,4.6,86,0.00,CLR,,0.21,WeatherDisplay:10.37,2013-02-22 13:09:00,
2013-02-22 08:11:00,40.7,36.8,30.12,ENE,66,3.5,3.5,86,0.00,CLR,,0.21,WeatherDisplay:10.37,2013-02-22 13:11:00,
2013-02-22 08:12:00,40.7,36.8,30.12,East,91,3.5,3.5,86,0.00,CLR,,0.21,WeatherDisplay:10.37,2013-02-22 13:12:00,
2013-02-22 08:14:00,40.7,36.8,30.12,East,90,4.6,4.6,86,0.00,CLR,,0.21,WeatherDisplay:10.37,2013-02-22 13:14:00,
2013-02-22 08:15:00,40.7,36.8,30.12,East,89,3.0,5.0,86,0.00,CLR,,0.21,WeatherDisplay:10.37,2013-02-22 13:15:00,
2013-02-22 08:16:00,40.8,36.9,30.12,ESE,106,2.3,2.3,86,0.00,CLR,,0.21,WeatherDisplay:10.37,2013-02-22 13:16:00,
2013-02-22 08:17:00,40.8,36.9,30.12,East,87,3.5,3.5,86,0.00,CLR,,0.21,WeatherDisplay:10.37,2013-02-22 13:17:00,
2013-02-22 08:20:00,40.8,36.9,30.12,East,89,3.0,5.0,86,0.00,CLR,,0.21,WeatherDisplay:10.37,2013-02-22 13:20:00,
2013-02-22 08:21:00,40.9,37.0,30.12,East,91,6.9,6.9,86,0.00,CLR,,0.21,WeatherDisplay:10.37,2013-02-22 13:21:00,
2013-02-22 08:22:00,40.9,37.0,30.12,ENE,78,3.5,3.5,86,0.00,CLR,,0.21,WeatherDisplay:10.37,2013-02-22 13:22:00,
2013-02-22 08:25:00,41.0,37.1,30.12,East,91,5.8,5.8,86,0.00,CLR,,0.21,WeatherDisplay:10.37,2013-02-22 13:25:00,
2013-02-22 08:27:00,41.1,36.9,30.11,ENE,73,5.8,5.8,85,0.00,CLR,,0.21,WeatherDisplay:10.37,2013-02-22 13:27:00,
2013-02-22 08:30:00,41.2,36.7,30.12,East,92,5.8,5.8,84,0.00,CLR,,0.21,WeatherDisplay:10.37,2013-02-22 13:30:00,
2013-02-22 08:32:00,41.2,36.7,30.12,East,80,4.6,4.6,84,0.00,CLR,,0.21,WeatherDisplay:10.37,2013-02-22 13:32:00,
2013-02-22 08:33:00,41.3,36.8,30.12,East,101,5.0,5.0,84,0.00,CLR,,0.21,WeatherDisplay:10.37,2013-02-22 13:33:00,
2013-02-22 08:35:00,41.4,36.6,30.11,SE,137,4.6,4.6,83,0.00,CLR,,0.21,WeatherDisplay:10.37,2013-02-22 13:35:00,
2013-02-22 08:37:00,41.5,37.0,30.12,East,101,4.6,4.6,84,0.00,CLR,,0.21,WeatherDisplay:10.37,2013-02-22 13:37:00,
2013-02-22 08:38:00,41.5,37.0,30.12,SE,139,3.5,3.5,84,0.00,CLR,,0.21,WeatherDisplay:10.37,2013-02-22 13:38:00,
2013-02-22 08:40:00,41.6,37.1,30.12,East,98,4.6,4.6,84,0.00,CLR,,0.21,WeatherDisplay:10.37,2013-02-22 13:40:00,
2013-02-22 08:41:00,41.6,37.1,30.12,East,93,4.6,4.6,84,0.00,CLR,,0.21,WeatherDisplay:10.37,2013-02-22 13:41:00,
2013-02-22 08:42:00,41.7,37.2,30.12,East,88,4.6,4.6,84,0.00,CLR,,0.21,WeatherDisplay:10.37,2013-02-22 13:42:00,
2013-02-22 08:43:00,41.7,37.2,30.12,East,93,4.6,4.6,84,0.00,CLR,,0.21,WeatherDisplay:10.37,2013-02-22 13:43:00,
2013-02-22 08:45:00,41.8,37.0,30.12,East,87,6.9,6.9,83,0.00,CLR,,0.21,WeatherDisplay:10.37,2013-02-22 13:45:00,
2013-02-22 08:46:00,41.9,37.1,30.12,East,82,4.6,4.6,83,0.00,CLR,,0.21,WeatherDisplay:10.37,2013-02-22 13:46:00,
2013-02-22 08:48:00,41.9,37.1,30.12,East,87,5.8,5.8,83,0.00,CLR,,0.21,WeatherDisplay:10.37,2013-02-22 13:48:00,
2013-02-22 08:50:00,42.1,37.3,30.12,ENE,74,5.8,5.8,83,0.00,CLR,,0.21,WeatherDisplay:10.37,2013-02-22 13:50:00,
2013-02-22 08:52:00,42.2,37.4,30.12,East,99,5.8,5.8,83,0.00,CLR,,0.21,WeatherDisplay:10.37,2013-02-22 13:52:00,
2013-02-22 08:53:00,42.2,37.1,30.12,ESE,115,5.8,5.8,82,0.00,CLR,,0.21,WeatherDisplay:10.37,2013-02-22 13:53:00,
2013-02-22 08:55:00,42.4,37.6,30.12,East,95,4.0,4.0,83,0.00,CLR,,0.21,WeatherDisplay:10.37,2013-02-22 13:55:00,
2013-02-22 08:57:00,42.5,37.7,30.12,East,84,4.6,4.6,83,0.00,CLR,,0.21,WeatherDisplay:10.37,2013-02-22 13:57:00,
2013-02-22 08:58:00,42.6,37.8,30.12,East,87,4.6,4.6,83,0.00,CLR,,0.21,WeatherDisplay:10.37,2013-02-22 13:58:00,
2013-02-22 08:59:00,42.6,37.8,30.12,ENE,74,5.0,5.0,83,0.00,CLR,,0.21,WeatherDisplay:10.37,2013-02-22 13:59:00,
2013-02-22 09:00:00,42.7,37.9,30.12,ESE,110,4.6,4.6,83,0.00,CLR,,0.21,WeatherDisplay:10.37,2013-02-22 14:00:00,
2013-02-22 09:02:00,42.8,37.7,30.11,East,96,5.8,5.8,82,0.00,CLR,,0.21,WeatherDisplay:10.37,2013-02-22 14:02:00,
2013-02-22 09:03:00,42.8,37.7,30.12,East,96,6.0,6.0,82,0.00,CLR,,0.21,WeatherDisplay:10.37,2013-02-22 14:03:00,
2013-02-22 09:04:00,42.8,37.7,30.12,East,82,6.9,6.9,82,0.00,CLR,,0.21,WeatherDisplay:10.37,2013-02-22 14:04:00,
2013-02-22 09:05:00,42.8,38.0,30.12,ENE,75,6.0,6.0,83,0.00,CLR,,0.21,WeatherDisplay:10.37,2013-02-22 14:05:00,
2013-02-22 09:07:00,42.9,37.8,30.11,East,94,6.9,6.9,82,0.00,CLR,,0.21,WeatherDisplay:10.37,2013-02-22 14:07:00,
2013-02-22 09:08:00,42.9,37.5,30.11,East,90,5.8,5.8,81,0.00,CLR,,0.21,WeatherDisplay:10.37,2013-02-22 14:08:00,
2013-02-22 09:09:00,42.9,37.5,30.12,East,91,6.0,6.0,81,0.00,CLR,,0.21,WeatherDisplay:10.37,2013-02-22 14:09:00,
2013-02-22 09:10:00,43.0,37.3,30.12,East,89,6.9,6.9,80,0.00,CLR,,0.21,WeatherDisplay:10.37,2013-02-22 14:10:00,
2013-02-22 09:12:00,43.0,37.6,30.12,SSE,165,5.8,5.8,81,0.00,CLR,,0.21,WeatherDisplay:10.37,2013-02-22 14:12:00,
2013-02-22 09:13:00,43.0,37.3,30.12,East,93,6.9,6.9,80,0.00,CLR,,0.21,WeatherDisplay:10.37,2013-02-22 14:13:00,
2013-02-22 09:14:00,43.0,37.6,30.11,NNE,13,5.8,5.8,81,0.00,CLR,,0.21,WeatherDisplay:10.37,2013-02-22 14:14:00,
2013-02-22 09:16:00,43.0,37.6,30.11,East,96,5.8,5.8,81,0.00,CLR,,0.21,WeatherDisplay:10.37,2013-02-22 14:16:00,
2013-02-22 09:18:00,43.1,37.7,30.12,East,84,6.9,6.9,81,0.00,CLR,,0.21,WeatherDisplay:10.37,2013-02-22 14:18:00,
2013-02-22 09:20:00,43.1,37.3,30.12,East,89,3.0,7.0,80,0.00,CLR,,0.21,WeatherDisplay:10.37,2013-02-22 14:20:00,
2013-02-22 09:21:00,43.1,37.3,30.12,East,82,4.0,4.0,80,0.00,CLR,,0.21,WeatherDisplay:10.37,2013-02-22 14:21:00,
2013-02-22 09:23:00,43.2,37.4,30.12,NE,51,6.0,6.0,80,0.00,CLR,,0.21,WeatherDisplay:10.37,2013-02-22 14:23:00,
2013-02-22 09:25:00,43.2,37.4,30.12,East,95,5.8,5.8,80,0.00,CLR,,0.21,WeatherDisplay:10.37,2013-02-22 14:25:00,
2013-02-22 09:26:00,43.2,37.4,30.11,ESE,106,5.8,5.8,80,0.00,CLR,,0.21,WeatherDisplay:10.37,2013-02-22 14:26:00,
2013-02-22 09:28:00,43.3,37.9,30.11,East,97,5.8,5.8,81,0.00,CLR,,0.21,WeatherDisplay:10.37,2013-02-22 14:28:00,
2013-02-22 09:29:00,43.3,37.5,30.11,ENE,57,5.8,5.8,80,0.00,CLR,,0.21,WeatherDisplay:10.37,2013-02-22 14:29:00,
2013-02-22 09:30:00,43.3,37.5,30.11,ENE,75,3.0,6.0,80,0.00,CLR,,0.21,WeatherDisplay:10.37,2013-02-22 14:30:00,
2013-02-22 09:31:00,43.4,37.6,30.12,ENE,77,3.5,3.5,80,0.00,CLR,,0.21,WeatherDisplay:10.37,2013-02-22 14:31:00,
2013-02-22 09:34:00,43.5,37.4,30.12,ENE,65,6.9,6.9,79,0.00,CLR,,0.21,WeatherDisplay:10.37,2013-02-22 14:34:00,
2013-02-22 09:35:00,43.5,37.4,30.12,ENE,74,4.6,4.6,79,0.00,CLR,,0.21,WeatherDisplay:10.37,2013-02-22 14:35:00,
2013-02-22 09:36:00,43.5,37.4,30.12,East,92,4.6,4.6,79,0.00,CLR,,0.21,WeatherDisplay:10.37,2013-02-22 14:36:00,
2013-02-22 09:39:00,43.7,37.6,30.11,East,94,8.1,8.1,79,0.00,CLR,,0.21,WeatherDisplay:10.37,2013-02-22 14:39:00,
2013-02-22 09:40:00,43.7,37.6,30.11,East,80,6.0,8.0,79,0.00,CLR,,0.21,WeatherDisplay:10.37,2013-02-22 14:40:00,
2013-02-22 09:41:00,43.8,37.7,30.11,ENE,77,8.1,8.1,79,0.00,CLR,,0.21,WeatherDisplay:10.37,2013-02-22 14:41:00,
2013-02-22 09:44:00,44.1,38.6,30.11,NE,46,5.0,5.0,81,0.00,CLR,,0.21,WeatherDisplay:10.37,2013-02-22 14:44:00,
2013-02-22 09:45:00,44.1,38.6,30.11,ESE,112,5.8,5.8,81,0.00,CLR,,0.21,WeatherDisplay:10.37,2013-02-22 14:45:00,
2013-02-22 09:46:00,44.2,38.4,30.11,ENE,78,5.8,5.8,80,0.00,CLR,,0.21,WeatherDisplay:10.37,2013-02-22 14:46:00,
2013-02-22 09:49:00,44.4,38.3,30.11,East,87,7.0,7.0,79,0.00,CLR,,0.21,WeatherDisplay:10.37,2013-02-22 14:49:00,
2013-02-22 09:50:00,44.5,38.4,30.11,ESE,103,8.1,8.1,79,0.00,CLR,,0.21,WeatherDisplay:10.37,2013-02-22 14:50:00,
2013-02-22 09:52:00,44.6,38.5,30.11,ENE,68,6.9,6.9,79,0.00,CLR,,0.21,WeatherDisplay:10.37,2013-02-22 14:52:00,
2013-02-22 09:54:00,45.0,39.2,30.11,East,86,5.8,5.8,80,0.00,CLR,,0.21,WeatherDisplay:10.37,2013-02-22 14:54:00,
2013-02-22 09:55:00,45.1,39.3,30.11,ENE,73,5.0,5.0,80,0.00,CLR,,0.21,WeatherDisplay:10.37,2013-02-22 14:55:00,
2013-02-22 09:56:00,45.2,39.4,30.11,East,92,7.0,7.0,80,0.00,CLR,,0.21,WeatherDisplay:10.37,2013-02-22 14:56:00,
2013-02-22 09:57:00,45.3,38.8,30.11,East,86,8.1,8.1,78,0.00,CLR,,0.21,WeatherDisplay:10.37,2013-02-22 14:57:00,
2013-02-22 10:00:00,45.4,38.6,30.11,East,84,7.0,7.0,77,0.00,CLR,,0.21,WeatherDisplay:10.37,2013-02-22 15:00:00,
2013-02-22 10:01:00,45.5,38.7,30.11,East,91,6.0,6.0,77,0.00,CLR,,0.21,WeatherDisplay:10.37,2013-02-22 15:01:00,
2013-02-22 10:02:00,45.5,38.7,30.11,ESE,103,6.9,6.9,77,0.00,CLR,,0.21,WeatherDisplay:10.37,2013-02-22 15:02:00,
2013-02-22 10:05:00,45.5,38.7,30.11,East,92,4.6,4.6,77,0.00,CLR,,0.21,WeatherDisplay:10.37,2013-02-22 15:05:00,
2013-02-22 10:06:00,45.5,38.7,30.11,SE,137,3.5,3.5,77,0.00,CLR,,0.21,WeatherDisplay:10.37,2013-02-22 15:06:00,
2013-02-22 10:08:00,45.5,39.0,30.11,East,91,3.5,3.5,78,0.00,CLR,,0.21,WeatherDisplay:10.37,2013-02-22 15:08:00,
2013-02-22 10:10:00,45.6,39.1,30.11,East,84,4.6,4.6,78,0.00,CLR,,0.21,WeatherDisplay:10.37,2013-02-22 15:10:00,
2013-02-22 10:11:00,45.7,39.2,30.10,ENE,78,5.0,5.0,78,0.00,CLR,,0.21,WeatherDisplay:10.37,2013-02-22 15:11:00,
2013-02-22 10:13:00,45.8,39.0,30.10,SE,136,8.1,8.1,77,0.00,CLR,,0.21,WeatherDisplay:10.37,2013-02-22 15:13:00,
2013-02-22 10:15:00,45.9,38.8,30.10,NE,46,6.9,6.9,76,0.00,CLR,,0.21,WeatherDisplay:10.37,2013-02-22 15:15:00,
2013-02-22 10:16:00,45.9,39.1,30.11,ENE,58,6.0,6.0,77,0.00,CLR,,0.21,WeatherDisplay:10.37,2013-02-22 15:16:00,
2013-02-22 10:18:00,46.1,39.3,30.10,East,96,6.0,6.0,77,0.00,CLR,,0.21,WeatherDisplay:10.37,2013-02-22 15:18:00,
2013-02-22 10:21:00,46.1,39.0,30.11,East,88,5.8,5.8,76,0.00,CLR,,0.21,WeatherDisplay:10.37,2013-02-22 15:21:00,
2013-02-22 10:23:00,46.3,39.1,30.11,ENE,71,8.1,8.1,76,0.00,CLR,,0.21,WeatherDisplay:10.37,2013-02-22 15:23:00,
2013-02-22 10:26:00,46.3,38.8,30.11,ENE,60,6.9,6.9,75,0.00,CLR,,0.21,WeatherDisplay:10.37,2013-02-22 15:26:00,
2013-02-22 10:28:00,46.2,38.7,30.11,East,89,4.6,4.6,75,0.00,CLR,,0.21,WeatherDisplay:10.37,2013-02-22 15:28:00,
2013-02-22 10:31:00,46.2,38.7,30.11,ENE,78,6.9,6.9,75,0.00,CLR,,0.21,WeatherDisplay:10.37,2013-02-22 15:31:00,
2013-02-22 10:32:00,46.2,39.1,30.11,East,98,4.6,4.6,76,0.00,CLR,,0.21,WeatherDisplay:10.37,2013-02-22 15:32:00,
2013-02-22 10:33:00,46.3,39.5,30.10,NE,48,4.6,4.6,77,0.00,CLR,,0.21,WeatherDisplay:10.37,2013-02-22 15:33:00,
2013-02-22 10:34:00,46.4,39.2,30.11,NNE,23,4.6,4.6,76,0.00,CLR,,0.21,WeatherDisplay:10.37,2013-02-22 15:34:00,
2013-02-22 10:36:00,46.6,39.4,30.10,ENE,66,4.0,4.0,76,0.00,CLR,,0.21,WeatherDisplay:10.37,2013-02-22 15:36:00,
2013-02-22 10:37:00,46.7,39.9,30.10,ENE,77,5.0,5.0,77,0.00,CLR,,0.21,WeatherDisplay:10.37,2013-02-22 15:37:00,
2013-02-22 10:38:00,46.7,39.5,30.10,East,96,4.6,4.6,76,0.00,CLR,,0.21,WeatherDisplay:10.37,2013-02-22 15:38:00,
2013-02-22 10:39:00,46.8,39.6,30.10,SE,146,3.5,3.5,76,0.00,CLR,,0.21,WeatherDisplay:10.37,2013-02-22 15:39:00,
2013-02-22 10:41:00,46.9,39.4,30.11,ESE,112,4.6,4.6,75,0.00,CLR,,0.21,WeatherDisplay:10.37,2013-02-22 15:41:00,
2013-02-22 10:43:00,47.1,39.6,30.11,East,92,6.0,6.0,75,0.00,CLR,,0.21,WeatherDisplay:10.37,2013-02-22 15:43:00,
2013-02-22 10:45:00,47.1,39.6,30.11,ENE,77,4.6,4.6,75,0.00,CLR,,0.21,WeatherDisplay:10.37,2013-02-22 15:45:00,
2013-02-22 10:46:00,47.1,39.6,30.11,East,81,4.0,4.0,75,0.00,CLR,,0.21,WeatherDisplay:10.37,2013-02-22 15:46:00,
2013-02-22 10:48:00,47.2,39.7,30.10,East,94,5.8,5.8,75,0.00,CLR,,0.21,WeatherDisplay:10.37,2013-02-22 15:48:00,
2013-02-22 10:50:00,47.3,39.4,30.11,East,82,4.6,4.6,74,0.00,CLR,,0.21,WeatherDisplay:10.37,2013-02-22 15:50:00,
2013-02-22 10:52:00,47.3,39.4,30.10,ESE,102,5.8,5.8,74,0.00,CLR,,0.21,WeatherDisplay:10.37,2013-02-22 15:52:00,
2013-02-22 10:53:00,47.3,39.4,30.10,East,88,5.0,5.0,74,0.00,CLR,,0.21,WeatherDisplay:10.37,2013-02-22 15:53:00,
2013-02-22 10:55:00,47.5,40.0,30.10,NE,48,4.6,4.6,75,0.00,CLR,,0.21,WeatherDisplay:10.37,2013-02-22 15:55:00,
2013-02-22 10:58:00,47.6,40.1,30.10,East,94,3.5,3.5,75,0.00,CLR,,0.21,WeatherDisplay:10.37,2013-02-22 15:58:00,
2013-02-22 10:59:00,47.7,39.8,30.10,ENE,74,4.6,4.6,74,0.00,CLR,,0.21,WeatherDisplay:10.37,2013-02-22 15:59:00,
2013-02-22 11:00:00,47.8,39.9,30.10,NE,53,3.5,3.5,74,0.00,CLR,,0.21,WeatherDisplay:10.37,2013-02-22 16:00:00,
2013-02-22 11:04:00,47.9,40.0,30.11,ENE,60,3.5,3.8,74,0.00,CLR,,0.21,WeatherDisplay:10.37,2013-02-22 16:04:00,
2013-02-22 11:06:00,47.9,40.4,30.11,SE,132,2.3,2.3,75,0.00,CLR,,0.21,WeatherDisplay:10.37,2013-02-22 16:06:00,
2013-02-22 11:09:00,48.1,40.9,30.11,East,84,2.3,2.3,76,0.00,CLR,,0.21,WeatherDisplay:10.37,2013-02-22 16:09:00,
2013-02-22 11:11:00,48.4,40.8,30.11,ESE,113,1.1,0.0,75,0.00,CLR,,0.21,WeatherDisplay:10.37,2013-02-22 16:11:00,
2013-02-22 11:14:00,48.7,41.1,30.10,ESE,115,1.1,0.0,75,0.00,CLR,,0.21,WeatherDisplay:10.37,2013-02-22 16:14:00,
2013-02-22 11:16:00,48.9,40.3,30.10,SE,129,2.3,2.3,72,0.00,CLR,,0.21,WeatherDisplay:10.37,2013-02-22 16:16:00,
2013-02-22 11:19:00,49.0,40.4,30.10,NW,321,3.5,3.5,72,0.00,CLR,,0.21,WeatherDisplay:10.37,2013-02-22 16:19:00,
2013-02-22 11:22:00,49.1,40.5,30.10,East,90,2.0,2.0,72,0.00,CLR,,0.21,WeatherDisplay:10.37,2013-02-22 16:22:00,
2013-02-22 11:24:00,49.3,41.0,30.10,ENE,75,2.0,2.0,73,0.00,CLR,,0.21,WeatherDisplay:10.37,2013-02-22 16:24:00,
2013-02-22 11:27:00,49.5,40.1,30.10,East,95,7.0,7.0,70,0.00,CLR,,0.21,WeatherDisplay:10.37,2013-02-22 16:27:00,
2013-02-22 11:29:00,49.8,40.0,30.10,ESE,122,5.8,5.8,69,0.00,CLR,,0.21,WeatherDisplay:10.37,2013-02-22 16:29:00,
2013-02-22 11:32:00,49.9,39.4,30.10,ESE,103,5.8,5.8,67,0.00,CLR,,0.21,WeatherDisplay:10.37,2013-02-22 16:32:00,
2013-02-22 11:34:00,50.0,40.2,30.10,ESE,115,3.0,3.0,69,0.00,CLR,,0.21,WeatherDisplay:10.37,2013-02-22 16:34:00,
2013-02-22 11:35:00,50.0,40.2,30.10,ESE,116,3.5,3.5,69,0.00,CLR,,0.21,WeatherDisplay:10.37,2013-02-22 16:35:00,
2013-02-22 11:37:00,50.1,39.6,30.10,SE,140,4.6,4.6,67,0.00,CLR,,0.21,WeatherDisplay:10.37,2013-02-22 16:37:00,
2013-02-22 11:39:00,50.2,40.0,30.10,SSW,205,2.3,2.3,68,0.00,CLR,,0.21,WeatherDisplay:10.37,2013-02-22 16:39:00,
2013-02-22 11:40:00,50.2,40.0,30.10,WSW,253,4.0,4.0,68,0.00,CLR,,0.21,WeatherDisplay:10.37,2013-02-22 16:40:00,
2013-02-22 11:41:00,50.3,39.8,30.10,West,269,3.5,3.5,67,0.00,CLR,,0.21,WeatherDisplay:10.37,2013-02-22 16:41:00,
2013-02-22 11:42:00,50.4,39.9,30.10,SE,141,2.3,2.3,67,0.00,CLR,,0.21,WeatherDisplay:10.37,2013-02-22 16:42:00,
2013-02-22 11:45:00,50.5,39.6,30.10,SW,234,3.5,3.5,66,0.00,CLR,,0.21,WeatherDisplay:10.37,2013-02-22 16:45:00,
2013-02-22 11:46:00,50.6,40.0,30.10,WSW,256,2.3,2.3,67,0.00,CLR,,0.21,WeatherDisplay:10.37,2013-02-22 16:46:00,
2013-02-22 11:47:00,50.8,40.6,30.10,SW,229,2.0,2.0,68,0.00,CLR,,0.21,WeatherDisplay:10.37,2013-02-22 16:47:00,
2013-02-22 11:50:00,51.0,40.0,30.10,SSW,201,4.0,4.0,66,0.00,CLR,,0.21,WeatherDisplay:10.37,2013-02-22 16:50:00,
2013-02-22 11:51:00,51.0,39.6,30.10,SW,224,5.8,5.8,65,0.00,CLR,,0.21,WeatherDisplay:10.37,2013-02-22 16:51:00,
2013-02-22 11:52:00,51.2,40.2,30.10,SW,219,1.1,1.1,66,0.00,CLR,,0.21,WeatherDisplay:10.37,2013-02-22 16:52:00,
2013-02-22 11:56:00,51.5,40.5,30.10,West,278,0.0,0.3,66,0.00,CLR,,0.21,WeatherDisplay:10.37,2013-02-22 16:56:00,
2013-02-22 11:57:00,51.6,40.6,30.09,NW,306,3.5,3.5,66,0.00,CLR,,0.21,WeatherDisplay:10.37,2013-02-22 16:57:00,
2013-02-22 11:58:00,51.7,40.3,30.09,NW,305,4.6,4.6,65,0.00,CLR,,0.21,WeatherDisplay:10.37,2013-02-22 16:58:00,
2013-02-22 12:01:00,51.8,41.2,30.09,NNW,335,3.5,3.5,67,0.00,CLR,,0.21,WeatherDisplay:10.37,2013-02-22 17:01:00,
2013-02-22 12:02:00,51.8,40.8,30.09,ESE,117,2.3,2.3,66,0.00,CLR,,0.21,WeatherDisplay:10.37,2013-02-22 17:02:00,
2013-02-22 12:03:00,51.8,40.4,30.09,East,87,2.3,2.3,65,0.00,CLR,,0.21,WeatherDisplay:10.37,2013-02-22 17:03:00,
2013-02-22 12:06:00,51.7,39.9,30.09,SE,139,4.6,4.6,64,0.00,CLR,,0.21,WeatherDisplay:10.37,2013-02-22 17:06:00,
2013-02-22 12:07:00,51.6,39.8,30.09,SE,140,3.5,3.5,64,0.00,CLR,,0.21,WeatherDisplay:10.37,2013-02-22 17:07:00,
2013-02-22 12:08:00,51.6,41.0,30.09,SE,140,1.1,1.1,67,0.00,CLR,,0.21,WeatherDisplay:10.37,2013-02-22 17:08:00,
2013-02-22 12:11:00,51.7,40.7,30.09,SE,127,3.5,3.5,66,0.00,CLR,,0.21,WeatherDisplay:10.37,2013-02-22 17:11:00,
2013-02-22 12:12:00,51.6,40.2,30.09,SE,126,2.3,2.3,65,0.00,CLR,,0.21,WeatherDisplay:10.37,2013-02-22 17:12:00,
2013-02-22 12:13:00,51.6,40.6,30.09,East,84,2.3,2.3,66,0.00,CLR,,0.21,WeatherDisplay:10.37,2013-02-22 17:13:00,
2013-02-22 12:16:00,51.6,40.2,30.09,ESE,109,3.5,3.5,65,0.00,CLR,,0.21,WeatherDisplay:10.37,2013-02-22 17:16:00,
2013-02-22 12:18:00,51.5,40.5,30.09,ESE,103,4.6,4.6,66,0.00,CLR,,0.21,WeatherDisplay:10.37,2013-02-22 17:18:00,
2013-02-22 12:21:00,51.7,40.7,30.09,West,267,1.1,0.0,66,0.00,CLR,,0.21,WeatherDisplay:10.37,2013-02-22 17:21:00,
2013-02-22 12:23:00,51.8,40.8,30.09,WSW,256,3.5,3.5,66,0.00,CLR,,0.21,WeatherDisplay:10.37,2013-02-22 17:23:00,
2013-02-22 12:24:00,51.9,40.5,30.08,SE,144,2.0,2.0,65,0.00,CLR,,0.21,WeatherDisplay:10.37,2013-02-22 17:24:00,
2013-02-22 12:26:00,52.1,41.1,30.09,South,180,0.0,0.3,66,0.00,CLR,,0.21,WeatherDisplay:10.37,2013-02-22 17:26:00,
2013-02-22 12:28:00,52.2,41.2,30.09,SSE,155,3.0,3.0,66,0.00,CLR,,0.21,WeatherDisplay:10.37,2013-02-22 17:28:00,
2013-02-22 12:29:00,52.3,40.9,30.09,West,276,3.5,3.5,65,0.00,CLR,,0.21,WeatherDisplay:10.37,2013-02-22 17:29:00,
2013-02-22 12:31:00,52.6,41.2,30.09,SE,141,2.3,2.3,65,0.00,CLR,,0.21,WeatherDisplay:10.37,2013-02-22 17:31:00,
2013-02-22 12:34:00,52.7,41.3,30.09,WSW,247,2.3,2.3,65,0.00,CLR,,0.21,WeatherDisplay:10.37,2013-02-22 17:34:00,
2013-02-22 12:37:00,52.7,40.9,30.08,East,91,3.5,3.5,64,0.00,CLR,,0.21,WeatherDisplay:10.37,2013-02-22 17:37:00,
2013-02-22 12:39:00,52.7,40.9,30.08,SSE,155,4.6,4.6,64,0.00,CLR,,0.21,WeatherDisplay:10.37,2013-02-22 17:39:00,
2013-02-22 12:42:00,52.7,40.9,30.08,SSE,151,3.5,3.5,64,0.00,CLR,,0.21,WeatherDisplay:10.37,2013-02-22 17:42:00,
2013-02-22 12:44:00,52.8,41.0,30.08,WSW,251,2.3,2.3,64,0.00,CLR,,0.21,WeatherDisplay:10.37,2013-02-22 17:44:00,
2013-02-22 12:47:00,53.0,40.7,30.07,SW,223,1.1,0.0,63,0.00,CLR,,0.21,WeatherDisplay:10.37,2013-02-22 17:47:00,
2013-02-22 12:49:00,53.2,41.3,30.08,SSW,203,1.1,1.1,64,0.00,CLR,,0.21,WeatherDisplay:10.37,2013-02-22 17:49:00,
2013-02-22 12:50:00,53.3,41.8,30.07,SSE,148,4.0,4.0,65,0.00,CLR,,0.21,WeatherDisplay:10.37,2013-02-22 17:50:00,
2013-02-22 12:53:00,53.5,41.6,30.07,ESE,109,3.5,3.5,64,0.00,CLR,,0.21,WeatherDisplay:10.37,2013-02-22 17:53:00,
2013-02-22 12:54:00,53.5,41.6,30.07,East,96,4.6,4.6,64,0.00,CLR,,0.21,WeatherDisplay:10.37,2013-02-22 17:54:00,
2013-02-22 12:55:00,53.5,41.6,30.07,SE,129,4.6,4.6,64,0.00,CLR,,0.21,WeatherDisplay:10.37,2013-02-22 17:55:00,
2013-02-22 12:59:00,53.6,42.1,30.07,East,94,3.5,3.5,65,0.00,CLR,,0.21,WeatherDisplay:10.37,2013-02-22 17:59:00,
2013-02-22 13:00:00,53.8,42.7,30.07,South,171,4.6,4.6,66,0.00,CLR,,0.21,WeatherDisplay:10.37,2013-02-22 18:00:00,
2013-02-22 13:04:00,54.4,42.5,30.06,SSE,164,3.5,3.5,64,0.00,CLR,,0.21,WeatherDisplay:10.37,2013-02-22 18:04:00,
2013-02-22 13:05:00,54.5,42.6,30.07,SE,146,3.5,3.5,64,0.00,CLR,,0.21,WeatherDisplay:10.37,2013-02-22 18:05:00,
2013-02-22 13:09:00,54.3,41.1,30.06,East,96,3.5,3.5,61,0.00,CLR,,0.21,WeatherDisplay:10.37,2013-02-22 18:09:00,
2013-02-22 13:10:00,54.2,41.0,30.06,East,101,3.5,3.5,61,0.00,CLR,,0.21,WeatherDisplay:10.37,2013-02-22 18:10:00,
2013-02-22 13:11:00,54.0,41.3,30.06,East,101,3.5,3.5,62,0.00,CLR,,0.21,WeatherDisplay:10.37,2013-02-22 18:11:00,
2013-02-22 13:14:00,54.1,41.8,30.07,SSW,212,2.3,2.5,63,0.00,CLR,,0.21,WeatherDisplay:10.37,2013-02-22 18:14:00,
2013-02-22 13:15:00,54.1,41.8,30.06,South,169,4.6,4.6,63,0.00,CLR,,0.21,WeatherDisplay:10.37,2013-02-22 18:15:00,
2013-02-22 13:16:00,54.1,41.4,30.06,South,182,4.6,4.6,62,0.00,CLR,,0.21,WeatherDisplay:10.37,2013-02-22 18:16:00,
2013-02-22 13:20:00,54.1,41.8,30.06,NW,305,2.3,2.3,63,0.00,CLR,,0.21,WeatherDisplay:10.37,2013-02-22 18:20:00,
2013-02-22 13:21:00,54.1,42.2,30.06,East,85,3.5,3.5,64,0.00,CLR,,0.21,WeatherDisplay:10.37,2013-02-22 18:21:00,
2013-02-22 13:25:00,54.2,41.9,30.06,SE,142,5.8,5.8,63,0.00,CLR,,0.21,WeatherDisplay:10.37,2013-02-22 18:25:00,
2013-02-22 13:26:00,54.3,42.0,30.06,SSE,147,5.8,5.8,63,0.00,CLR,,0.21,WeatherDisplay:10.37,2013-02-22 18:26:00,
2013-02-22 13:27:00,54.2,41.9,30.06,ESE,117,3.5,3.5,63,0.00,CLR,,0.21,WeatherDisplay:10.37,2013-02-22 18:27:00,
2013-02-22 13:30:00,54.3,41.6,30.06,ESE,105,4.6,4.6,62,0.00,CLR,,0.21,WeatherDisplay:10.37,2013-02-22 18:30:00,
2013-02-22 13:31:00,54.2,41.9,30.06,ESE,110,3.5,3.5,63,0.00,CLR,,0.21,WeatherDisplay:10.37,2013-02-22 18:31:00,
2013-02-22 13:32:00,54.2,41.9,30.06,ESE,110,3.5,3.5,63,0.00,CLR,,0.21,WeatherDisplay:10.37,2013-02-22 18:32:00,
2013-02-22 13:35:00,54.2,41.9,30.06,SSE,155,3.0,3.0,63,0.00,CLR,,0.21,WeatherDisplay:10.37,2013-02-22 18:35:00,
2013-02-22 13:36:00,54.2,42.3,30.06,ESE,113,3.5,3.5,64,0.00,CLR,,0.21,WeatherDisplay:10.37,2013-02-22 18:36:00,
2013-02-22 13:37:00,54.2,41.9,30.06,ESE,117,3.5,3.5,63,0.00,CLR,,0.21,WeatherDisplay:10.37,2013-02-22 18:37:00,
2013-02-22 13:38:00,54.2,42.3,30.06,East,82,3.5,3.5,64,0.00,CLR,,0.21,WeatherDisplay:10.37,2013-02-22 18:38:00,
2013-02-22 13:40:00,54.3,42.4,30.05,SSE,151,2.3,2.3,64,0.00,CLR,,0.21,WeatherDisplay:10.37,2013-02-22 18:40:00,
2013-02-22 13:41:00,54.4,42.9,30.06,SE,134,3.0,3.0,65,0.00,CLR,,0.21,WeatherDisplay:10.37,2013-02-22 18:41:00,
2013-02-22 13:42:00,54.4,42.1,30.05,ESE,112,3.5,3.5,63,0.00,CLR,,0.21,WeatherDisplay:10.37,2013-02-22 18:42:00,
2013-02-22 13:43:00,54.4,42.1,30.05,East,83,4.0,4.0,63,0.00,CLR,,0.21,WeatherDisplay:10.37,2013-02-22 18:43:00,
2013-02-22 13:46:00,54.4,42.5,30.05,SE,128,3.5,3.5,64,0.00,CLR,,0.21,WeatherDisplay:10.37,2013-02-22 18:46:00,
2013-02-22 13:47:00,54.5,42.6,30.05,SE,129,3.5,3.5,64,0.00,CLR,,0.21,WeatherDisplay:10.37,2013-02-22 18:47:00,
2013-02-22 13:48:00,54.5,43.0,30.05,ESE,118,2.3,2.3,65,0.00,,,0.21,WeatherDisplay:10.37,2013-02-22 18:48:00,
2013-02-22 13:52:00,54.7,42.3,30.05,ESE,103,3.5,3.5,63,0.00,,,0.21,WeatherDisplay:10.37,2013-02-22 18:52:00,
2013-02-22 13:54:00,54.9,43.4,30.05,ESE,117,3.5,3.5,65,0.00,,,0.21,WeatherDisplay:10.37,2013-02-22 18:54:00,
2013-02-22 13:57:00,54.9,42.5,30.05,South,170,3.5,3.5,63,0.00,,,0.21,WeatherDisplay:10.37,2013-02-22 18:57:00,
2013-02-22 13:58:00,54.9,42.9,30.05,SW,235,3.5,3.5,64,0.00,,,0.21,WeatherDisplay:10.37,2013-02-22 18:58:00,
2013-02-22 13:59:00,55.0,42.2,30.05,SW,234,0.0,0.0,62,0.00,,,0.21,WeatherDisplay:10.37,2013-02-22 18:59:00,
2013-02-22 14:02:00,55.2,43.2,30.05,West,260,1.1,1.1,64,0.00,,,0.21,WeatherDisplay:10.37,2013-02-22 19:02:00,
2013-02-22 14:03:00,55.3,43.3,30.05,West,260,1.1,1.1,64,0.00,,,0.21,WeatherDisplay:10.37,2013-02-22 19:03:00,
2013-02-22 14:05:00,55.4,43.0,30.05,WNW,302,2.3,2.3,63,0.00,,,0.21,WeatherDisplay:10.37,2013-02-22 19:05:00,
2013-02-22 14:07:00,55.3,43.3,30.05,West,273,2.0,2.0,64,0.00,,,0.21,WeatherDisplay:10.37,2013-02-22 19:07:00,
2013-02-22 14:08:00,55.3,43.3,30.05,West,273,2.3,2.3,64,0.00,,,0.21,WeatherDisplay:10.37,2013-02-22 19:08:00,
2013-02-22 14:10:00,55.4,43.0,30.05,West,264,3.5,3.5,63,0.00,,,0.21,WeatherDisplay:10.37,2013-02-22 19:10:00,
2013-02-22 14:13:00,55.5,42.7,30.05,SW,228,4.6,4.6,62,0.00,,,0.21,WeatherDisplay:10.37,2013-02-22 19:13:00,
2013-02-22 14:15:00,55.6,43.2,30.05,West,265,2.3,2.3,63,0.00,,,0.21,WeatherDisplay:10.37,2013-02-22 19:15:00,
2013-02-22 14:18:00,55.7,42.9,30.05,WSW,258,6.0,6.0,62,0.00,,,0.21,WeatherDisplay:10.37,2013-02-22 19:18:00,
2013-02-22 14:19:00,55.7,42.9,30.05,WSW,239,5.8,5.8,62,0.00,,,0.21,WeatherDisplay:10.37,2013-02-22 19:19:00,
2013-02-22 14:20:00,55.7,43.3,30.05,WSW,258,3.5,3.5,63,0.00,,,0.21,WeatherDisplay:10.37,2013-02-22 19:20:00,
2013-02-22 14:23:00,55.9,43.5,30.06,WNW,288,3.5,3.5,63,0.00,,,0.21,WeatherDisplay:10.37,2013-02-22 19:23:00,
2013-02-22 14:24:00,55.9,43.1,30.05,WNW,286,3.5,3.5,62,0.00,,,0.21,WeatherDisplay:10.37,2013-02-22 19:24:00,
2013-02-22 14:25:00,55.9,43.5,30.06,SW,236,4.0,4.0,63,0.00,,,0.21,WeatherDisplay:10.37,2013-02-22 19:25:00,
2013-02-22 14:28:00,56.0,43.6,30.06,West,267,1.1,1.1,63,0.00,,,0.21,WeatherDisplay:10.37,2013-02-22 19:28:00,
2013-02-22 14:29:00,56.0,43.6,30.05,WSW,257,3.5,3.5,63,0.00,,,0.21,WeatherDisplay:10.37,2013-02-22 19:29:00,
2013-02-22 14:30:00,56.0,43.6,30.05,West,265,2.3,0.0,63,0.00,,,0.21,WeatherDisplay:10.37,2013-02-22 19:30:00,
2013-02-22 14:33:00,56.0,43.6,30.06,West,260,2.3,2.3,63,0.00,,,0.21,WeatherDisplay:10.37,2013-02-22 19:33:00,
2013-02-22 14:34:00,56.0,43.6,30.06,West,274,2.3,2.3,63,0.00,,,0.21,WeatherDisplay:10.37,2013-02-22 19:34:00,
2013-02-22 14:35:00,56.0,44.0,30.06,WNW,285,2.3,2.3,64,0.00,,,0.21,WeatherDisplay:10.37,2013-02-22 19:35:00,
2013-02-22 14:36:00,56.0,44.0,30.06,WNW,285,2.3,0.0,64,0.00,,,0.21,WeatherDisplay:10.37,2013-02-22 19:36:00,
2013-02-22 14:38:00,56.0,43.2,30.05,WNW,285,2.0,2.0,62,0.00,,,0.21,WeatherDisplay:10.37,2013-02-22 19:38:00,
2013-02-22 14:39:00,56.0,43.6,30.05,WNW,285,2.3,2.3,63,0.00,,,0.21,WeatherDisplay:10.37,2013-02-22 19:39:00,
2013-02-22 14:41:00,56.0,43.6,30.05,WSW,255,3.5,3.5,63,0.00,,,0.21,WeatherDisplay:10.37,2013-02-22 19:41:00,
2013-02-22 14:43:00,56.0,43.2,30.05,WSW,253,3.5,3.5,62,0.00,,,0.21,WeatherDisplay:10.37,2013-02-22 19:43:00,
2013-02-22 14:45:00,56.0,43.2,30.05,West,259,4.6,4.6,62,0.00,,,0.21,WeatherDisplay:10.37,2013-02-22 19:45:00,
2013-02-22 14:46:00,56.0,43.6,30.05,WSW,250,2.3,2.3,63,0.00,,,0.21,WeatherDisplay:10.37,2013-02-22 19:46:00,
2013-02-22 14:47:00,56.1,43.7,30.05,WSW,250,1.1,1.1,63,0.00,,,0.21,WeatherDisplay:10.37,2013-02-22 19:47:00,
2013-02-22 14:48:00,56.1,43.3,30.05,West,263,3.5,3.5,62,0.00,,,0.21,WeatherDisplay:10.37,2013-02-22 19:48:00,
2013-02-22 14:50:00,56.1,43.7,30.05,NW,309,3.5,0.0,63,0.00,,,0.21,WeatherDisplay:10.37,2013-02-22 19:50:00,
2013-02-22 14:52:00,56.2,43.3,30.05,NW,305,3.0,3.0,62,0.00,,,0.21,WeatherDisplay:10.37,2013-02-22 19:52:00,
2013-02-22 14:53:00,56.2,44.6,30.04,West,281,3.5,3.5,65,0.00,,,0.21,WeatherDisplay:10.37,2013-02-22 19:53:00,
2013-02-22 14:55:00,56.2,43.8,30.04,WSW,258,3.5,3.5,63,0.00,,,0.21,WeatherDisplay:10.37,2013-02-22 19:55:00,
2013-02-22 14:57:00,56.3,44.3,30.04,WSW,258,3.0,3.0,64,0.00,,,0.21,WeatherDisplay:10.37,2013-02-22 19:57:00,
2013-02-22 14:59:00,56.3,43.4,30.04,NW,305,4.0,4.0,62,0.00,,,0.21,WeatherDisplay:10.37,2013-02-22 19:59:00,
2013-02-22 15:00:00,56.3,43.4,30.05,WSW,256,4.0,4.0,62,0.00,,,0.21,WeatherDisplay:10.37,2013-02-22 20:00:00,
2013-02-22 15:02:00,56.2,42.9,30.05,SW,226,5.8,5.8,61,0.00,,,0.21,WeatherDisplay:10.37,2013-02-22 20:02:00,
2013-02-22 15:04:00,56.0,43.2,30.05,West,261,3.5,3.5,62,0.00,,,0.21,WeatherDisplay:10.37,2013-02-22 20:04:00,
2013-02-22 15:06:00,56.0,43.2,30.05,SSE,150,2.3,2.3,62,0.00,,,0.21,WeatherDisplay:10.37,2013-02-22 20:06:00,
2013-02-22 15:07:00,56.0,43.2,30.04,SSE,150,2.3,2.3,62,0.00,,,0.21,WeatherDisplay:10.37,2013-02-22 20:07:00,
2013-02-22 15:09:00,56.1,43.7,30.04,NW,316,1.1,1.1,63,0.00,,,0.21,WeatherDisplay:10.37,2013-02-22 20:09:00,
2013-02-22 15:11:00,56.1,44.1,30.04,WNW,289,1.1,1.1,64,0.00,,,0.21,WeatherDisplay:10.37,2013-02-22 20:11:00,
2013-02-22 15:12:00,56.1,43.7,30.04,WNW,290,1.1,1.1,63,0.00,,,0.21,WeatherDisplay:10.37,2013-02-22 20:12:00,
2013-02-22 15:15:00,56.1,43.7,30.04,WSW,254,2.0,2.0,63,0.00,,,0.21,WeatherDisplay:10.37,2013-02-22 20:15:00,
2013-02-22 15:16:00,56.1,43.7,30.04,SW,222,2.3,2.3,63,0.00,,,0.21,WeatherDisplay:10.37,2013-02-22 20:16:00,
2013-02-22 15:17:00,56.1,43.7,30.04,SW,222,1.1,1.1,63,0.00,,,0.21,WeatherDisplay:10.37,2013-02-22 20:17:00,
2013-02-22 15:21:00,56.1,43.7,30.04,SSE,162,3.5,3.5,63,0.00,,,0.21,WeatherDisplay:10.37,2013-02-22 20:21:00,
2013-02-22 15:22:00,56.1,43.7,30.04,SSW,193,3.5,3.5,63,0.00,,,0.21,WeatherDisplay:10.37,2013-02-22 20:22:00,
2013-02-22 15:26:00,55.9,43.5,30.04,ESE,122,3.5,3.5,63,0.00,,,0.21,WeatherDisplay:10.37,2013-02-22 20:26:00,
2013-02-22 15:27:00,55.9,43.5,30.03,ESE,108,3.5,3.5,63,0.00,,,0.21,WeatherDisplay:10.37,2013-02-22 20:27:00,
2013-02-22 15:28:00,55.8,43.4,30.03,South,181,3.5,3.5,63,0.00,,,0.21,WeatherDisplay:10.37,2013-02-22 20:28:00,
2013-02-22 15:31:00,55.7,43.3,30.03,ESE,123,1.0,1.0,63,0.00,,,0.21,WeatherDisplay:10.37,2013-02-22 20:31:00,
2013-02-22 15:32:00,55.7,43.3,30.03,ESE,122,1.1,1.1,63,0.00,,,0.21,WeatherDisplay:10.37,2013-02-22 20:32:00,
2013-02-22 15:34:00,55.8,43.4,30.03,SE,125,0.0,0.0,63,0.00,,,0.21,WeatherDisplay:10.37,2013-02-22 20:34:00,
2013-02-22 15:36:00,55.8,43.8,30.03,SE,124,1.1,1.1,64,0.00,,,0.21,WeatherDisplay:10.37,2013-02-22 20:36:00,
2013-02-22 15:37:00,55.9,43.9,30.03,SE,124,1.1,0.0,64,0.00,,,0.21,WeatherDisplay:10.37,2013-02-22 20:37:00,
2013-02-22 15:38:00,55.9,43.9,30.03,SE,125,1.1,0.0,64,0.00,,,0.21,WeatherDisplay:10.37,2013-02-22 20:38:00,
2013-02-22 15:39:00,55.9,43.9,30.03,SE,125,1.1,0.0,64,0.00,,,0.21,WeatherDisplay:10.37,2013-02-22 20:39:00,
2013-02-22 15:42:00,56.1,44.5,30.03,SE,124,1.1,1.1,65,0.00,,,0.21,WeatherDisplay:10.37,2013-02-22 20:42:00,
2013-02-22 15:43:00,56.1,44.5,30.03,SE,124,0.0,0.0,65,0.00,,,0.21,WeatherDisplay:10.37,2013-02-22 20:43:00,
2013-02-22 15:44:00,56.2,44.2,30.03,SE,124,0.0,0.0,64,0.00,,,0.21,WeatherDisplay:10.37,2013-02-22 20:44:00,
2013-02-22 15:47:00,56.4,44.8,30.03,SE,125,0.0,0.0,65,0.00,,,0.21,WeatherDisplay:10.37,2013-02-22 20:47:00,
2013-02-22 15:48:00,56.4,44.4,30.03,SE,124,0.0,0.0,64,0.00,,,0.21,WeatherDisplay:10.37,2013-02-22 20:48:00,
2013-02-22 15:49:00,56.5,44.0,30.03,SSE,153,2.3,2.3,63,0.00,,,0.21,WeatherDisplay:10.37,2013-02-22 20:49:00,
2013-02-22 15:53:00,56.2,43.3,30.03,SSE,150,2.3,2.3,62,0.00,,,0.21,WeatherDisplay:10.37,2013-02-22 20:53:00,
2013-02-22 15:54:00,56.0,43.6,30.04,SSE,150,0.0,0.0,63,0.00,,,0.21,WeatherDisplay:10.37,2013-02-22 20:54:00,
2013-02-22 15:58:00,55.9,44.3,30.04,WSW,241,1.1,1.1,65,0.00,,,0.21,WeatherDisplay:10.37,2013-02-22 20:58:00,
2013-02-22 15:59:00,55.9,43.9,30.04,West,260,1.1,1.1,64,0.00,,,0.21,WeatherDisplay:10.37,2013-02-22 20:59:00,
2013-02-22 16:03:00,55.9,43.9,30.04,West,260,1.1,1.1,64,0.00,,,0.21,WeatherDisplay:10.37,2013-02-22 21:03:00,
2013-02-22 16:04:00,55.9,43.9,30.04,West,260,1.1,1.1,64,0.00,,,0.21,WeatherDisplay:10.37,2013-02-22 21:04:00,
2013-02-22 16:08:00,56.0,44.4,30.04,West,260,0.0,0.1,65,0.00,,,0.21,WeatherDisplay:10.37,2013-02-22 21:08:00,
2013-02-22 16:09:00,56.0,44.4,30.04,West,260,1.1,1.1,65,0.00,,,0.21,WeatherDisplay:10.37,2013-02-22 21:09:00,
2013-02-22 16:13:00,56.0,44.4,30.04,WNW,284,1.1,1.1,65,0.00,,,0.21,WeatherDisplay:10.37,2013-02-22 21:13:00,
2013-02-22 16:14:00,56.0,44.0,30.04,WNW,284,1.1,1.1,64,0.00,,,0.21,WeatherDisplay:10.37,2013-02-22 21:14:00,
2013-02-22 16:15:00,55.9,44.3,30.03,WNW,284,1.1,1.1,65,0.00,,,0.21,WeatherDisplay:10.37,2013-02-22 21:15:00,
2013-02-22 16:18:00,55.8,43.8,30.03,WNW,285,1.1,0.0,64,0.00,,,0.21,WeatherDisplay:10.37,2013-02-22 21:18:00,
2013-02-22 16:19:00,55.8,43.8,30.03,WNW,285,0.0,0.0,64,0.00,,,0.21,WeatherDisplay:10.37,2013-02-22 21:19:00,
2013-02-22 16:21:00,55.7,44.1,30.03,WNW,284,1.1,0.0,65,0.00,,,0.21,WeatherDisplay:10.37,2013-02-22 21:21:00,
2013-02-22 16:24:00,55.8,44.2,30.03,WNW,285,1.1,0.0,65,0.00,,,0.21,WeatherDisplay:10.37,2013-02-22 21:24:00,
2013-02-22 16:25:00,55.8,44.2,30.03,WNW,285,1.1,1.1,65,0.00,,,0.21,WeatherDisplay:10.37,2013-02-22 21:25:00,
2013-02-22 16:27:00,55.7,43.7,30.03,WNW,285,0.0,0.0,64,0.00,,,0.21,WeatherDisplay:10.37,2013-02-22 21:27:00,
2013-02-22 16:29:00,55.7,44.1,30.02,WNW,285,0.0,0.2,65,0.00,,,0.21,WeatherDisplay:10.37,2013-02-22 21:29:00,
2013-02-22 16:30:00,55.8,44.2,30.02,WNW,285,2.3,0.0,65,0.00,,,0.21,WeatherDisplay:10.37,2013-02-22 21:30:00,
2013-02-22 16:32:00,55.8,44.2,30.02,WNW,285,0.0,0.0,65,0.00,,,0.21,WeatherDisplay:10.37,2013-02-22 21:32:00,
2013-02-22 16:34:00,55.9,44.3,30.01,WNW,285,1.1,0.0,65,0.00,,,0.21,WeatherDisplay:10.37,2013-02-22 21:34:00,
2013-02-22 16:35:00,55.9,44.3,30.01,WNW,285,0.0,0.0,65,0.00,,,0.21,WeatherDisplay:10.37,2013-02-22 21:35:00,
2013-02-22 16:36:00,55.9,44.7,30.01,WNW,285,0.0,0.1,66,0.00,,,0.21,WeatherDisplay:10.37,2013-02-22 21:36:00,
2013-02-22 16:37:00,56.0,44.4,30.01,WSW,244,0.0,0.8,65,0.00,,,0.21,WeatherDisplay:10.37,2013-02-22 21:37:00,
2013-02-22 16:39:00,55.9,43.9,30.01,WSW,244,1.1,0.0,64,0.00,,,0.21,WeatherDisplay:10.37,2013-02-22 21:39:00,
2013-02-22 16:40:00,55.9,43.9,30.02,WSW,245,1.1,0.0,64,0.00,,,0.21,WeatherDisplay:10.37,2013-02-22 21:40:00,
2013-02-22 16:41:00,55.9,43.9,30.03,WSW,245,1.1,0.0,64,0.00,,,0.21,WeatherDisplay:10.37,2013-02-22 21:41:00,
2013-02-22 16:42:00,55.8,44.2,30.03,West,267,1.0,1.0,65,0.00,,,0.21,WeatherDisplay:10.37,2013-02-22 21:42:00,
2013-02-22 16:45:00,55.7,44.1,30.03,WNW,297,2.3,2.3,65,0.00,,,0.21,WeatherDisplay:10.37,2013-02-22 21:45:00,
2013-02-22 16:46:00,55.6,44.4,30.03,NW,305,2.3,2.3,66,0.00,,,0.21,WeatherDisplay:10.37,2013-02-22 21:46:00,
2013-02-22 16:48:00,55.5,44.3,30.02,NW,305,2.3,2.3,66,0.00,,,0.21,WeatherDisplay:10.37,2013-02-22 21:48:00,
2013-02-22 16:50:00,55.4,43.8,30.03,NW,305,2.3,2.3,65,0.00,,,0.21,WeatherDisplay:10.37,2013-02-22 21:50:00,
2013-02-22 16:51:00,55.3,44.1,30.03,NW,305,2.3,2.3,66,0.00,,,0.21,WeatherDisplay:10.37,2013-02-22 21:51:00,
2013-02-22 16:53:00,55.2,43.6,30.02,WNW,302,1.1,1.1,65,0.00,,,0.21,WeatherDisplay:10.37,2013-02-22 21:53:00,
2013-02-22 16:55:00,55.1,43.5,30.02,WNW,295,1.1,1.1,65,0.00,,,0.21,WeatherDisplay:10.37,2013-02-22 21:55:00,
2013-02-22 16:56:00,55.1,43.9,30.02,WNW,295,1.1,1.1,66,0.00,,,0.21,WeatherDisplay:10.37,2013-02-22 21:56:00,
2013-02-22 16:58:00,55.0,43.8,30.02,WNW,295,1.1,0.0,66,0.00,,,0.21,WeatherDisplay:10.37,2013-02-22 21:58:00,
2013-02-22 17:01:00,55.0,43.8,30.02,WNW,295,0.0,0.0,66,0.00,,,0.21,WeatherDisplay:10.37,2013-02-22 22:01:00,
2013-02-22 17:02:00,55.0,44.2,30.02,WNW,295,1.1,0.0,67,0.00,,,0.21,WeatherDisplay:10.37,2013-02-22 22:02:00,
2013-02-22 17:03:00,55.0,44.2,30.02,West,271,2.3,2.3,67,0.00,,,0.21,WeatherDisplay:10.37,2013-02-22 22:03:00,
2013-02-22 17:06:00,54.9,44.5,30.02,West,271,0.0,0.0,68,0.00,,,0.21,WeatherDisplay:10.37,2013-02-22 22:06:00,
2013-02-22 17:07:00,54.8,44.8,30.02,West,271,1.1,1.1,69,0.00,,,0.21,WeatherDisplay:10.37,2013-02-22 22:07:00,
2013-02-22 17:08:00,54.8,44.8,30.02,West,271,0.0,0.0,69,0.00,,,0.21,WeatherDisplay:10.37,2013-02-22 22:08:00,
2013-02-22 17:11:00,54.6,45.0,30.02,West,271,1.0,1.0,70,0.00,,,0.21,WeatherDisplay:10.37,2013-02-22 22:11:00,
2013-02-22 17:13:00,54.5,44.9,30.02,WNW,297,2.3,2.3,70,0.00,,,0.21,WeatherDisplay:10.37,2013-02-22 22:13:00,
2013-02-22 17:16:00,54.3,44.7,30.02,WNW,296,0.0,0.0,70,0.00,,,0.21,WeatherDisplay:10.37,2013-02-22 22:16:00,
2013-02-22 17:18:00,54.3,44.7,30.02,WNW,297,1.1,1.1,70,0.00,,,0.21,WeatherDisplay:10.37,2013-02-22 22:18:00,
2013-02-22 17:19:00,54.3,45.1,30.02,WNW,296,0.0,0.0,71,0.00,,,0.21,WeatherDisplay:10.37,2013-02-22 22:19:00,
2013-02-22 17:21:00,54.2,45.0,30.02,WNW,296,1.1,1.1,71,0.00,,,0.21,WeatherDisplay:10.37,2013-02-22 22:21:00,
2013-02-22 17:22:00,54.2,45.4,30.02,WNW,296,1.1,0.0,72,0.00,,,0.21,WeatherDisplay:10.37,2013-02-22 22:22:00,
2013-02-22 17:23:00,54.1,44.9,30.02,WNW,296,0.0,0.0,71,0.00,,,0.21,WeatherDisplay:10.37,2013-02-22 22:23:00,
2013-02-22 17:24:00,54.1,45.3,30.02,WNW,297,0.0,0.0,72,0.00,,,0.21,WeatherDisplay:10.37,2013-02-22 22:24:00,
2013-02-22 17:26:00,54.0,45.2,30.02,WNW,297,0.0,0.0,72,0.00,,,0.21,WeatherDisplay:10.37,2013-02-22 22:26:00,
2013-02-22 17:28:00,53.9,45.4,30.02,WNW,297,0.0,0.0,73,0.00,,,0.21,WeatherDisplay:10.37,2013-02-22 22:28:00,
2013-02-22 17:29:00,53.9,45.4,30.02,WNW,296,0.0,0.0,73,0.00,,,0.21,WeatherDisplay:10.37,2013-02-22 22:29:00,
2013-02-22 17:32:00,53.7,45.2,30.03,WNW,296,0.0,0.0,73,0.00,,,0.21,WeatherDisplay:10.37,2013-02-22 22:32:00,
2013-02-22 17:33:00,53.7,45.6,30.02,WNW,297,0.0,0.0,74,0.00,,,0.21,WeatherDisplay:10.37,2013-02-22 22:33:00,
2013-02-22 17:34:00,53.6,45.5,30.02,WNW,296,0.0,0.0,74,0.00,,,0.21,WeatherDisplay:10.37,2013-02-22 22:34:00,
2013-02-22 17:37:00,53.4,45.3,30.02,WNW,297,0.0,0.0,74,0.00,,,0.21,WeatherDisplay:10.37,2013-02-22 22:37:00,
2013-02-22 17:38:00,53.2,45.5,30.02,WNW,296,0.0,0.0,75,0.00,,,0.21,WeatherDisplay:10.37,2013-02-22 22:38:00,
2013-02-22 17:39:00,53.2,45.5,30.02,WNW,296,0.0,0.0,75,0.00,,,0.21,WeatherDisplay:10.37,2013-02-22 22:39:00,
2013-02-22 17:42:00,52.9,45.2,30.02,WNW,296,0.0,0.0,75,0.00,,,0.21,WeatherDisplay:10.37,2013-02-22 22:42:00,
2013-02-22 17:43:00,52.8,45.1,30.02,WNW,296,0.0,0.0,75,0.00,,,0.21,WeatherDisplay:10.37,2013-02-22 22:43:00,
2013-02-22 17:44:00,52.8,45.1,30.02,WNW,297,0.0,0.0,75,0.00,,,0.21,WeatherDisplay:10.37,2013-02-22 22:44:00,
2013-02-22 17:47:00,52.5,45.2,30.02,WNW,296,1.1,1.1,76,0.00,,,0.21,WeatherDisplay:10.37,2013-02-22 22:47:00,
2013-02-22 17:48:00,52.3,45.0,30.02,WNW,296,1.1,0.0,76,0.00,,,0.21,WeatherDisplay:10.37,2013-02-22 22:48:00,
2013-02-22 17:49:00,52.3,45.0,30.02,WNW,297,0.0,0.0,76,0.00,,,0.21,WeatherDisplay:10.37,2013-02-22 22:49:00,
2013-02-22 17:50:00,52.2,44.9,30.02,WNW,296,1.1,0.0,76,0.00,,,0.21,WeatherDisplay:10.37,2013-02-22 22:50:00,
2013-02-22 17:52:00,52.1,44.4,30.02,WNW,282,1.1,1.1,75,0.00,,,0.21,WeatherDisplay:10.37,2013-02-22 22:52:00,
2013-02-22 17:54:00,52.1,44.4,30.02,West,276,0.0,0.0,75,0.00,,,0.21,WeatherDisplay:10.37,2013-02-22 22:54:00,
2013-02-22 17:56:00,52.1,44.8,30.02,West,276,0.0,0.0,76,0.00,,,0.21,WeatherDisplay:10.37,2013-02-22 22:56:00,
2013-02-22 17:57:00,52.0,44.7,30.02,West,276,0.0,0.1,76,0.00,,,0.21,WeatherDisplay:10.37,2013-02-22 22:57:00,
2013-02-22 17:59:00,51.9,44.6,30.02,West,276,0.0,0.0,76,0.00,,,0.21,WeatherDisplay:10.37,2013-02-22 22:59:00,
2013-02-22 18:00:00,51.9,44.6,30.02,West,276,0.0,1.0,76,0.00,,,0.21,WeatherDisplay:10.37,2013-02-22 23:00:00,
2013-02-22 18:01:00,51.8,44.5,30.02,West,275,0.0,0.0,76,0.00,,,0.21,WeatherDisplay:10.37,2013-02-22 23:01:00,
2013-02-22 18:02:00,51.7,44.4,30.02,West,275,0.0,0.0,76,0.00,,,0.21,WeatherDisplay:10.37,2013-02-22 23:02:00,
2013-02-22 18:04:00,51.6,44.6,30.03,West,276,1.1,0.0,77,0.00,,,0.21,WeatherDisplay:10.37,2013-02-22 23:04:00,
2013-02-22 18:05:00,51.5,44.5,30.02,West,276,1.1,0.0,77,0.00,,,0.21,WeatherDisplay:10.37,2013-02-22 23:05:00,
2013-02-22 18:06:00,51.4,44.4,30.02,West,276,1.1,0.0,77,0.00,,,0.21,WeatherDisplay:10.37,2013-02-22 23:06:00,
2013-02-22 18:07:00,51.2,44.2,30.03,West,276,1.1,0.0,77,0.00,,,0.21,WeatherDisplay:10.37,2013-02-22 23:07:00,
2013-02-22 18:09:00,51.0,44.4,30.03,West,276,0.0,0.0,78,0.00,,,0.21,WeatherDisplay:10.37,2013-02-22 23:09:00,
2013-02-22 18:10:00,51.0,44.4,30.03,West,276,0.0,1.0,78,0.00,,,0.21,WeatherDisplay:10.37,2013-02-22 23:10:00,
2013-02-22 18:11:00,50.9,44.3,30.03,West,276,1.1,0.0,78,0.00,,,0.21,WeatherDisplay:10.37,2013-02-22 23:11:00,
2013-02-22 18:12:00,50.7,44.1,30.02,West,275,1.1,1.1,78,0.00,,,0.21,WeatherDisplay:10.37,2013-02-22 23:12:00,
2013-02-22 18:15:00,50.5,44.2,30.03,West,275,0.0,0.0,79,0.00,,,0.21,WeatherDisplay:10.37,2013-02-22 23:15:00,
2013-02-22 18:16:00,50.4,44.1,30.03,West,275,0.0,0.0,79,0.00,,,0.21,WeatherDisplay:10.37,2013-02-22 23:16:00,
2013-02-22 18:18:00,50.3,44.0,30.03,West,275,0.0,0.0,79,0.00,,,0.21,WeatherDisplay:10.37,2013-02-22 23:18:00,
2013-02-22 18:20:00,50.0,44.1,30.03,West,274,0.0,0.0,80,0.00,,,0.21,WeatherDisplay:10.37,2013-02-22 23:20:00,
2013-02-22 18:22:00,49.9,44.0,30.03,West,276,0.0,0.0,80,0.00,,,0.21,WeatherDisplay:10.37,2013-02-22 23:22:00,
2013-02-22 18:23:00,49.8,43.9,30.03,West,275,0.0,0.0,80,0.00,,,0.21,WeatherDisplay:10.37,2013-02-22 23:23:00,
2013-02-22 18:25:00,49.7,44.1,30.03,West,266,1.1,1.1,81,0.00,,,0.21,WeatherDisplay:10.37,2013-02-22 23:25:00,
2013-02-22 18:28:00,49.5,43.9,30.03,West,266,1.0,0.0,81,0.00,,,0.21,WeatherDisplay:10.37,2013-02-22 23:28:00,
2013-02-22 18:30:00,49.4,43.8,30.03,West,266,1.1,1.1,81,0.00,,,0.21,WeatherDisplay:10.37,2013-02-22 23:30:00,
2013-02-22 18:33:00,49.2,43.9,30.02,NNW,338,1.1,1.1,82,0.00,,,0.21,WeatherDisplay:10.37,2013-02-22 23:33:00,
2013-02-22 18:35:00,49.0,43.7,30.02,NNW,338,1.1,1.1,82,0.00,,,0.21,WeatherDisplay:10.37,2013-02-22 23:35:00,
2013-02-22 18:36:00,48.9,43.6,30.02,NNW,339,1.1,1.1,82,0.00,,,0.21,WeatherDisplay:10.37,2013-02-22 23:36:00,
2013-02-22 18:38:00,48.8,43.9,30.02,NNW,335,1.1,1.1,83,0.00,,,0.21,WeatherDisplay:10.37,2013-02-22 23:38:00,
2013-02-22 18:39:00,48.8,43.9,30.02,NNW,335,1.1,1.1,83,0.00,,,0.21,WeatherDisplay:10.37,2013-02-22 23:39:00,
2013-02-22 18:40:00,48.7,43.8,30.02,NNW,335,1.1,1.1,83,0.00,,,0.21,WeatherDisplay:10.37,2013-02-22 23:40:00,
2013-02-22 18:41:00,48.7,43.8,30.02,NNW,335,1.1,0.0,83,0.00,,,0.21,WeatherDisplay:10.37,2013-02-22 23:41:00,
2013-02-22 18:43:00,48.6,43.7,30.02,NNW,335,1.1,1.1,83,0.00,,,0.21,WeatherDisplay:10.37,2013-02-22 23:43:00,
2013-02-22 18:45:00,48.6,43.7,30.02,NNW,347,1.0,7.0,83,0.00,,,0.21,WeatherDisplay:10.37,2013-02-22 23:45:00,
2013-02-22 18:47:00,48.4,42.8,30.03,East,101,6.9,6.9,81,0.00,,,0.21,WeatherDisplay:10.37,2013-02-22 23:47:00,
2013-02-22 18:48:00,48.2,42.6,30.02,ESE,116,3.5,3.5,81,0.00,,,0.21,WeatherDisplay:10.37,2013-02-22 23:48:00,
2013-02-22 18:50:00,48.1,42.5,30.03,SE,129,3.5,3.5,81,0.00,,,0.21,WeatherDisplay:10.37,2013-02-22 23:50:00,
2013-02-22 18:52:00,48.1,42.5,30.03,East,91,3.5,3.5,81,0.00,,,0.21,WeatherDisplay:10.37,2013-02-22 23:52:00,
2013-02-22 18:54:00,47.9,42.0,30.03,ESE,102,2.3,2.3,80,0.00,,,0.21,WeatherDisplay:10.37,2013-02-22 23:54:00,
2013-02-22 18:55:00,47.8,41.9,30.02,East,96,2.3,2.3,80,0.00,,,0.21,WeatherDisplay:10.37,2013-02-22 23:55:00,
2013-02-22 18:56:00,47.7,41.8,30.02,East,89,3.5,3.5,80,0.00,,,0.21,WeatherDisplay:10.37,2013-02-22 23:56:00,
2013-02-22 18:57:00,47.6,41.7,30.02,ESE,108,4.6,4.6,80,0.00,,,0.21,WeatherDisplay:10.37,2013-02-22 23:57:00,
2013-02-22 18:59:00,47.4,41.5,30.02,East,84,4.0,4.0,80,0.00,,,0.21,WeatherDisplay:10.37,2013-02-22 23:59:00,
2013-02-22 19:00:00,47.3,41.4,30.02,SE,144,3.5,3.5,80,0.00,,,0.21,WeatherDisplay:10.37,2013-02-23 00:00:00,
2013-02-22 19:02:00,47.2,41.3,30.03,SE,144,3.5,3.5,80,0.00,,,0.21,WeatherDisplay:10.37,2013-02-23 00:02:00,
2013-02-22 19:04:00,47.0,41.1,30.03,SE,136,2.3,2.3,80,0.00,,,0.21,WeatherDisplay:10.37,2013-02-23 00:04:00,
2013-02-22 19:05:00,46.9,41.1,30.03,ESE,106,2.3,2.3,80,0.00,,,0.21,WeatherDisplay:10.37,2013-02-23 00:05:00,
2013-02-22 19:08:00,46.7,40.9,30.03,SSE,149,2.3,2.3,80,0.00,,,0.21,WeatherDisplay:10.37,2013-02-23 00:08:00,
2013-02-22 19:09:00,46.7,40.9,30.03,SSE,149,2.3,2.3,80,0.00,,,0.21,WeatherDisplay:10.37,2013-02-23 00:09:00,
2013-02-22 19:10:00,46.6,40.8,30.04,SSE,165,2.3,2.3,80,0.00,,,0.21,WeatherDisplay:10.37,2013-02-23 00:10:00,
2013-02-22 19:13:00,46.4,40.6,30.03,ESE,103,3.5,3.5,80,0.00,,,0.21,WeatherDisplay:10.37,2013-02-23 00:13:00,
2013-02-22 19:14:00,46.3,40.5,30.03,SE,132,3.5,3.5,80,0.00,,,0.21,WeatherDisplay:10.37,2013-02-23 00:14:00,
2013-02-22 19:15:00,46.2,40.4,30.03,SE,134,3.5,3.5,80,0.00,,,0.21,WeatherDisplay:10.37,2013-02-23 00:15:00,
2013-02-22 19:18:00,46.0,40.5,30.02,SE,131,2.3,2.3,81,0.00,,,0.21,WeatherDisplay:10.37,2013-02-23 00:18:00,
2013-02-22 19:19:00,45.9,40.4,30.02,East,88,2.3,2.3,81,0.00,,,0.21,WeatherDisplay:10.37,2013-02-23 00:19:00,
2013-02-22 19:21:00,45.8,40.3,30.03,SE,139,3.5,3.5,81,0.00,,,0.21,WeatherDisplay:10.37,2013-02-23 00:21:00,
2013-02-22 19:23:00,45.6,40.1,30.03,SSE,149,3.5,3.5,81,0.00,,,0.21,WeatherDisplay:10.37,2013-02-23 00:23:00,
2013-02-22 19:24:00,45.5,40.0,30.03,East,88,3.5,3.5,81,0.00,,,0.21,WeatherDisplay:10.37,2013-02-23 00:24:00,
2013-02-22 19:26:00,45.4,39.9,30.03,East,97,3.5,3.5,81,0.00,,,0.21,WeatherDisplay:10.37,2013-02-23 00:26:00,
2013-02-22 19:28:00,45.2,40.0,30.03,ESE,110,4.0,4.0,82,0.00,,,0.21,WeatherDisplay:10.37,2013-02-23 00:28:00,
2013-02-22 19:29:00,45.1,39.9,30.03,ESE,113,3.5,3.5,82,0.00,,,0.21,WeatherDisplay:10.37,2013-02-23 00:29:00,
2013-02-22 19:31:00,45.0,39.8,30.03,ESE,119,2.3,2.3,82,0.00,,,0.21,WeatherDisplay:10.37,2013-02-23 00:31:00,
2013-02-22 19:34:00,44.9,39.7,30.03,ESE,118,2.3,2.3,82,0.00,,,0.21,WeatherDisplay:10.37,2013-02-23 00:34:00,
2013-02-22 19:37:00,44.8,39.6,30.03,SE,127,3.5,3.5,82,0.00,,,0.21,WeatherDisplay:10.37,2013-02-23 00:37:00,
2013-02-22 19:39:00,44.7,39.9,30.03,SE,139,2.3,2.3,83,0.00,,,0.21,WeatherDisplay:10.37,2013-02-23 00:39:00,
2013-02-22 19:42:00,44.6,39.8,30.03,SSE,158,1.1,1.1,83,0.00,,,0.21,WeatherDisplay:10.37,2013-02-23 00:42:00,
2013-02-22 19:44:00,44.6,39.8,30.04,SE,143,2.3,2.3,83,0.00,,,0.21,WeatherDisplay:10.37,2013-02-23 00:44:00,
2013-02-22 19:45:00,44.6,39.8,30.04,SE,143,2.3,2.3,83,0.00,,,0.21,WeatherDisplay:10.37,2013-02-23 00:45:00,
2013-02-22 19:47:00,44.5,39.7,30.04,SSE,158,2.3,2.3,83,0.00,,,0.21,WeatherDisplay:10.37,2013-02-23 00:47:00,
2013-02-22 19:49:00,44.5,39.7,30.04,East,93,3.5,3.5,83,0.00,,,0.21,WeatherDisplay:10.37,2013-02-23 00:49:00,
2013-02-22 19:50:00,44.5,39.7,30.04,SE,132,1.0,3.0,83,0.00,,,0.21,WeatherDisplay:10.37,2013-02-23 00:50:00,
2013-02-22 19:52:00,44.4,39.6,30.04,East,87,3.5,3.5,83,0.00,,,0.21,WeatherDisplay:10.37,2013-02-23 00:52:00,
2013-02-22 19:54:00,44.3,39.5,30.04,ENE,72,3.0,3.0,83,0.00,,,0.21,WeatherDisplay:10.37,2013-02-23 00:54:00,
2013-02-22 19:55:00,44.3,39.4,30.04,ESE,108,1.0,3.0,83,0.00,,,0.21,WeatherDisplay:10.37,2013-02-23 00:55:00,
2013-02-22 19:57:00,44.1,39.3,30.04,SE,134,4.0,4.0,83,0.00,,,0.21,WeatherDisplay:10.37,2013-02-23 00:57:00,
2013-02-22 19:59:00,44.0,39.2,30.04,SE,125,3.0,3.0,83,0.00,,,0.21,WeatherDisplay:10.37,2013-02-23 00:59:00,
2013-02-22 20:00:00,44.0,39.2,30.04,East,98,1.0,4.0,83,0.00,,,0.21,WeatherDisplay:10.37,2013-02-23 01:00:00,
2013-02-22 20:03:00,44.0,38.9,30.04,East,89,2.3,2.3,82,0.00,,,0.21,WeatherDisplay:10.37,2013-02-23 01:03:00,
2013-02-22 20:05:00,43.9,39.1,30.04,ESE,102,1.0,3.0,83,0.00,,,0.21,WeatherDisplay:10.37,2013-02-23 01:05:00,
2013-02-22 20:08:00,43.7,38.6,30.04,East,84,5.8,5.8,82,0.00,,,0.21,WeatherDisplay:10.37,2013-02-23 01:08:00,
2013-02-22 20:10:00,43.7,38.6,30.04,East,98,2.0,6.0,82,0.00,,,0.21,WeatherDisplay:10.37,2013-02-23 01:10:00,
2013-02-22 20:13:00,43.4,38.6,30.04,ESE,103,4.0,4.0,83,0.00,,,0.21,WeatherDisplay:10.37,2013-02-23 01:13:00,
2013-02-22 20:15:00,43.4,38.6,30.04,East,98,2.0,4.0,83,0.00,,,0.21,WeatherDisplay:10.37,2013-02-23 01:15:00,
2013-02-22 20:16:00,43.3,38.5,30.04,East,82,2.3,2.3,83,0.00,,,0.21,WeatherDisplay:10.37,2013-02-23 01:16:00,
2013-02-22 20:18:00,43.1,38.3,30.04,East,91,3.5,3.5,83,0.00,,,0.21,WeatherDisplay:10.37,2013-02-23 01:18:00,
2013-02-22 20:20:00,43.1,38.3,30.04,SE,136,4.0,4.0,83,0.00,,,0.21,WeatherDisplay:10.37,2013-02-23 01:20:00,
2013-02-22 20:21:00,43.1,38.6,30.04,ESE,110,4.6,4.6,84,0.00,,,0.21,WeatherDisplay:10.37,2013-02-23 01:21:00,
2013-02-22 20:24:00,42.9,38.4,30.05,East,84,5.0,5.0,84,0.00,,,0.21,WeatherDisplay:10.37,2013-02-23 01:24:00,
2013-02-22 20:25:00,42.9,38.4,30.04,ESE,111,4.6,4.6,84,0.00,,,0.21,WeatherDisplay:10.37,2013-02-23 01:25:00,
2013-02-22 20:26:00,42.9,38.4,30.04,ENE,74,3.5,3.5,84,0.00,,,0.21,WeatherDisplay:10.37,2013-02-23 01:26:00,
2013-02-22 20:29:00,42.8,38.3,30.04,ESE,109,3.5,3.5,84,0.00,,,0.21,WeatherDisplay:10.37,2013-02-23 01:29:00,
2013-02-22 20:30:00,42.7,38.2,30.04,ESE,109,3.5,3.5,84,0.00,,,0.21,WeatherDisplay:10.37,2013-02-23 01:30:00,
2013-02-22 20:31:00,42.7,38.2,30.04,East,85,3.5,3.5,84,0.00,,,0.21,WeatherDisplay:10.37,2013-02-23 01:31:00,
2013-02-22 20:34:00,42.7,38.2,30.04,ENE,77,4.0,4.0,84,0.00,,,0.21,WeatherDisplay:10.37,2013-02-23 01:34:00,
2013-02-22 20:35:00,42.6,38.1,30.04,ESE,109,4.0,4.0,84,0.00,,,0.21,WeatherDisplay:10.37,2013-02-23 01:35:00,
2013-02-22 20:36:00,42.6,38.1,30.04,ESE,121,3.5,3.5,84,0.00,,,0.21,WeatherDisplay:10.37,2013-02-23 01:36:00,
2013-02-22 20:39:00,42.5,38.0,30.04,SSE,154,4.6,4.6,84,0.00,,,0.21,WeatherDisplay:10.37,2013-02-23 01:39:00,
2013-02-22 20:40:00,42.5,38.0,30.04,ESE,115,5.0,5.0,84,0.00,,,0.21,WeatherDisplay:10.37,2013-02-23 01:40:00,
2013-02-22 20:41:00,42.4,37.9,30.04,East,87,4.6,4.6,84,0.00,,,0.21,WeatherDisplay:10.37,2013-02-23 01:41:00,
2013-02-22 20:44:00,42.3,38.1,30.04,South,174,6.9,6.9,85,0.00,,,0.21,WeatherDisplay:10.37,2013-02-23 01:44:00,
2013-02-22 20:45:00,42.3,38.1,30.04,East,98,4.6,4.6,85,0.00,,,0.21,WeatherDisplay:10.37,2013-02-23 01:45:00,
2013-02-22 20:46:00,42.3,38.1,30.04,East,83,3.5,3.5,85,0.00,,,0.21,WeatherDisplay:10.37,2013-02-23 01:46:00,
2013-02-22 20:50:00,42.2,38.0,30.04,SE,134,3.5,3.5,85,0.00,,,0.21,WeatherDisplay:10.37,2013-02-23 01:50:00,
2013-02-22 20:51:00,42.2,38.0,30.04,ESE,118,3.5,3.5,85,0.00,,,0.21,WeatherDisplay:10.37,2013-02-23 01:51:00,
2013-02-22 20:55:00,42.2,38.0,30.03,ENE,78,3.5,3.5,85,0.00,,,0.21,WeatherDisplay:10.37,2013-02-23 01:55:00,
2013-02-22 20:56:00,42.1,37.9,30.03,East,82,3.5,3.5,85,0.00,,,0.21,WeatherDisplay:10.37,2013-02-23 01:56:00,
2013-02-22 20:57:00,42.2,38.0,30.03,ESE,103,2.3,2.3,85,0.00,,,0.21,WeatherDisplay:10.37,2013-02-23 01:57:00,
2013-02-22 21:01:00,42.0,37.5,30.03,ENE,73,6.9,6.9,84,0.00,,,0.21,WeatherDisplay:10.37,2013-02-23 02:01:00,
2013-02-22 21:02:00,42.0,37.5,30.04,East,91,3.5,3.5,84,0.00,,,0.21,WeatherDisplay:10.37,2013-02-23 02:02:00,
2013-02-22 21:06:00,41.9,37.4,30.04,East,91,3.5,3.5,84,0.00,,,0.21,WeatherDisplay:10.37,2013-02-23 02:06:00,
2013-02-22 21:07:00,41.9,37.4,30.04,ESE,111,3.5,3.5,84,0.00,,,0.21,WeatherDisplay:10.37,2013-02-23 02:07:00,
2013-02-22 21:11:00,41.8,37.3,30.04,East,99,3.5,3.5,84,0.00,,,0.21,WeatherDisplay:10.37,2013-02-23 02:11:00,
2013-02-22 21:12:00,41.8,37.3,30.04,East,92,3.5,3.5,84,0.00,,,0.21,WeatherDisplay:10.37,2013-02-23 02:12:00,
2013-02-22 21:16:00,41.7,37.2,30.05,SSE,167,3.5,3.5,84,0.00,,,0.21,WeatherDisplay:10.37,2013-02-23 02:16:00,
2013-02-22 21:17:00,41.7,37.2,30.05,ESE,109,4.6,4.6,84,0.00,,,0.21,WeatherDisplay:10.37,2013-02-23 02:17:00,
2013-02-22 21:21:00,41.5,37.3,30.05,East,89,3.5,3.5,85,0.00,,,0.21,WeatherDisplay:10.37,2013-02-23 02:21:00,
2013-02-22 21:22:00,41.5,37.3,30.05,East,82,3.5,3.5,85,0.00,,,0.21,WeatherDisplay:10.37,2013-02-23 02:22:00,
2013-02-22 21:23:00,41.5,37.3,30.05,East,95,3.5,3.5,85,0.00,,,0.21,WeatherDisplay:10.37,2013-02-23 02:23:00,
2013-02-22 21:27:00,41.3,37.1,30.06,NNW,327,1.1,1.1,85,0.00,,,0.21,WeatherDisplay:10.37,2013-02-23 02:27:00,
2013-02-22 21:28:00,41.4,37.2,30.06,East,88,2.3,2.3,85,0.00,,,0.21,WeatherDisplay:10.37,2013-02-23 02:28:00,
2013-02-22 21:32:00,41.4,37.2,30.05,ESE,108,2.3,2.3,85,0.00,,,0.21,WeatherDisplay:10.37,2013-02-23 02:32:00,
2013-02-22 21:33:00,41.5,37.3,30.05,SE,139,2.3,2.3,85,0.00,,,0.21,WeatherDisplay:10.37,2013-02-23 02:33:00,
2013-02-22 21:37:00,41.5,37.3,30.05,ENE,63,2.3,2.3,85,0.00,,,0.21,WeatherDisplay:10.37,2013-02-23 02:37:00,
2013-02-22 21:38:00,41.5,37.3,30.06,ENE,63,1.1,1.1,85,0.00,,,0.21,WeatherDisplay:10.37,2013-02-23 02:38:00,
2013-02-22 21:39:00,41.5,37.3,30.06,ENE,63,1.1,1.1,85,0.00,,,0.21,WeatherDisplay:10.37,2013-02-23 02:39:00,
2013-02-22 21:42:00,41.4,37.2,30.06,ENE,63,1.1,1.1,85,0.00,,,0.21,WeatherDisplay:10.37,2013-02-23 02:42:00,
2013-02-22 21:43:00,41.3,37.1,30.06,East,84,2.3,2.3,85,0.00,,,0.21,WeatherDisplay:10.37,2013-02-23 02:43:00,
2013-02-22 21:44:00,41.3,37.1,30.06,ESE,122,2.3,2.3,85,0.00,,,0.21,WeatherDisplay:10.37,2013-02-23 02:44:00,
2013-02-22 21:47:00,41.3,37.1,30.06,SE,144,2.3,2.3,85,0.00,,,0.21,WeatherDisplay:10.37,2013-02-23 02:47:00,
2013-02-22 21:48:00,41.3,37.4,30.06,SE,144,1.1,1.1,86,0.00,,,0.21,WeatherDisplay:10.37,2013-02-23 02:48:00,
2013-02-22 21:49:00,41.3,37.4,30.06,SE,144,1.1,1.1,86,0.00,,,0.21,WeatherDisplay:10.37,2013-02-23 02:49:00,
2013-02-22 21:52:00,41.2,37.3,30.06,ESE,106,1.1,1.1,86,0.00,,,0.21,WeatherDisplay:10.37,2013-02-23 02:52:00,
2013-02-22 21:54:00,41.1,37.2,30.06,ESE,120,2.3,2.3,86,0.00,,,0.21,WeatherDisplay:10.37,2013-02-23 02:54:00,
2013-02-22 21:58:00,40.9,37.0,30.06,ESE,116,5.0,5.0,86,0.00,,,0.21,WeatherDisplay:10.37,2013-02-23 02:58:00,
2013-02-22 21:59:00,40.9,37.0,30.06,SE,126,4.6,4.6,86,0.00,,,0.21,WeatherDisplay:10.37,2013-02-23 02:59:00,
2013-02-22 22:00:00,40.9,37.0,30.06,ESE,104,2.0,5.0,86,0.00,,,0.21,WeatherDisplay:10.37,2013-02-23 03:00:00,
2013-02-22 22:03:00,40.7,36.8,30.06,East,98,5.0,5.0,86,0.00,,,0.21,WeatherDisplay:10.37,2013-02-23 03:03:00,
2013-02-22 22:04:00,40.7,36.8,30.05,East,82,4.6,4.6,86,0.00,,,0.21,WeatherDisplay:10.37,2013-02-23 03:04:00,
2013-02-22 22:05:00,40.7,36.8,30.05,East,95,5.0,5.0,86,0.00,,,0.21,WeatherDisplay:10.37,2013-02-23 03:05:00,
2013-02-22 22:08:00,40.6,36.7,30.05,ENE,70,4.6,4.6,86,0.00,,,0.21,WeatherDisplay:10.37,2013-02-23 03:08:00,
2013-02-22 22:09:00,40.6,36.7,30.05,East,91,4.6,4.6,86,0.00,,,0.21,WeatherDisplay:10.37,2013-02-23 03:09:00,
2013-02-22 22:10:00,40.6,36.7,30.05,East,101,3.0,7.0,86,0.00,,,0.21,WeatherDisplay:10.37,2013-02-23 03:10:00,
2013-02-22 22:13:00,40.5,36.6,30.05,ESE,105,4.6,4.6,86,0.00,,,0.21,WeatherDisplay:10.37,2013-02-23 03:13:00,
2013-02-22 22:14:00,40.5,36.6,30.05,East,82,4.6,4.6,86,0.00,,,0.21,WeatherDisplay:10.37,2013-02-23 03:14:00,
2013-02-22 22:15:00,40.5,36.6,30.05,East,82,5.0,5.0,86,0.00,,,0.21,WeatherDisplay:10.37,2013-02-23 03:15:00,
2013-02-22 22:18:00,40.4,36.5,30.04,East,91,5.8,5.8,86,0.00,,,0.21,WeatherDisplay:10.37,2013-02-23 03:18:00,
2013-02-22 22:19:00,40.3,36.4,30.04,East,82,4.6,4.6,86,0.00,,,0.21,WeatherDisplay:10.37,2013-02-23 03:19:00,
2013-02-22 22:20:00,40.3,36.4,30.04,East,91,4.6,4.6,86,0.00,,,0.21,WeatherDisplay:10.37,2013-02-23 03:20:00,
2013-02-22 22:23:00,40.2,36.6,30.03,East,95,4.0,4.0,87,0.00,,,0.21,WeatherDisplay:10.37,2013-02-23 03:23:00,
2013-02-22 22:25:00,40.2,36.6,30.03,East,86,2.0,4.0,87,0.00,,,0.21,WeatherDisplay:10.37,2013-02-23 03:25:00,
2013-02-22 22:26:00,40.1,36.5,30.03,SE,125,3.5,3.5,87,0.00,,,0.21,WeatherDisplay:10.37,2013-02-23 03:26:00,
2013-02-22 22:28:00,40.1,36.2,30.03,South,173,4.6,4.6,86,0.00,,,0.21,WeatherDisplay:10.37,2013-02-23 03:28:00,
2013-02-22 22:30:00,40.1,36.3,30.03,East,87,2.0,5.0,86,0.00,,,0.21,WeatherDisplay:10.37,2013-02-23 03:30:00,
2013-02-22 22:32:00,40.1,36.2,30.03,East,94,4.6,4.6,86,0.00,,,0.21,WeatherDisplay:10.37,2013-02-23 03:32:00,
2013-02-22 22:34:00,40.1,36.2,30.04,East,94,2.3,2.3,86,0.00,,,0.21,WeatherDisplay:10.37,2013-02-23 03:34:00,
2013-02-22 22:35:00,40.1,36.2,30.04,East,84,5.8,5.8,86,0.00,,,0.21,WeatherDisplay:10.37,2013-02-23 03:35:00,
2013-02-22 22:36:00,40.0,36.2,30.04,NE,56,5.0,5.0,86,0.00,,,0.21,WeatherDisplay:10.37,2013-02-23 03:36:00,
2013-02-22 22:37:00,40.0,36.2,30.04,SE,137,4.6,4.6,86,0.00,,,0.21,WeatherDisplay:10.37,2013-02-23 03:37:00,
2013-02-22 22:39:00,40.0,36.2,30.03,East,89,4.6,4.6,86,0.00,,,0.21,WeatherDisplay:10.37,2013-02-23 03:39:00,
2013-02-22 22:40:00,40.0,36.2,30.03,ESE,104,3.5,3.5,86,0.00,,,0.21,WeatherDisplay:10.37,2013-02-23 03:40:00,
2013-02-22 22:41:00,40.0,36.2,30.03,East,85,3.5,3.5,86,0.00,,,0.21,WeatherDisplay:10.37,2013-02-23 03:41:00,
2013-02-22 22:42:00,40.0,36.4,30.03,ENE,73,3.5,3.5,87,0.00,,,0.21,WeatherDisplay:10.37,2013-02-23 03:42:00,
2013-02-22 22:44:00,39.9,36.3,30.03,East,89,5.0,5.0,87,0.00,,,0.21,WeatherDisplay:10.37,2013-02-23 03:44:00,
2013-02-22 22:45:00,39.9,36.3,30.03,East,87,5.8,5.8,87,0.00,,,0.21,WeatherDisplay:10.37,2013-02-23 03:45:00,
2013-02-22 22:46:00,39.9,36.3,30.03,East,88,5.8,5.8,87,0.00,,,0.21,WeatherDisplay:10.37,2013-02-23 03:46:00,
2013-02-22 22:48:00,39.9,36.3,30.03,East,82,5.0,5.0,87,0.00,,,0.21,WeatherDisplay:10.37,2013-02-23 03:48:00,
2013-02-22 22:49:00,39.8,36.2,30.03,ENE,70,5.8,5.8,87,0.00,,,0.21,WeatherDisplay:10.37,2013-02-23 03:49:00,
2013-02-22 22:50:00,39.8,36.2,30.02,ESE,113,4.0,4.0,87,0.00,,,0.21,WeatherDisplay:10.37,2013-02-23 03:50:00,
2013-02-22 22:51:00,39.8,36.2,30.02,NE,51,5.0,5.0,87,0.00,,,0.21,WeatherDisplay:10.37,2013-02-23 03:51:00,
2013-02-22 22:53:00,39.8,36.2,30.02,East,84,3.5,3.5,87,0.00,,,0.21,WeatherDisplay:10.37,2013-02-23 03:53:00,
2013-02-22 22:54:00,39.8,36.2,30.02,ENE,75,3.5,3.5,87,0.00,,,0.21,WeatherDisplay:10.37,2013-02-23 03:54:00,
2013-02-22 22:55:00,39.8,36.2,30.03,East,99,3.5,3.5,87,0.00,,,0.21,WeatherDisplay:10.37,2013-02-23 03:55:00,
2013-02-22 22:56:00,39.8,36.2,30.02,East,89,3.5,3.5,87,0.00,,,0.21,WeatherDisplay:10.37,2013-02-23 03:56:00,
2013-02-22 22:58:00,39.8,36.2,30.02,East,99,3.5,3.5,87,0.00,,,0.21,WeatherDisplay:10.37,2013-02-23 03:58:00,
2013-02-22 22:59:00,39.8,36.2,30.02,SSE,148,6.9,6.9,87,0.00,,,0.21,WeatherDisplay:10.37,2013-02-23 03:59:00,
2013-02-22 23:01:00,39.8,36.2,30.02,SSE,160,8.1,8.1,87,0.00,,,0.21,WeatherDisplay:10.37,2013-02-23 04:01:00,
2013-02-22 23:03:00,39.7,36.1,30.02,ENE,78,6.0,6.0,87,0.00,,,0.21,WeatherDisplay:10.37,2013-02-23 04:03:00,
2013-02-22 23:04:00,39.7,36.1,30.02,East,81,5.8,5.8,87,0.00,,,0.21,WeatherDisplay:10.37,2013-02-23 04:04:00,
2013-02-22 23:06:00,39.7,36.1,30.03,NE,50,3.5,3.5,87,0.00,,,0.21,WeatherDisplay:10.37,2013-02-23 04:06:00,
2013-02-22 23:08:00,39.7,36.1,30.03,ENE,65,4.0,4.0,87,0.00,,,0.21,WeatherDisplay:10.37,2013-02-23 04:08:00,
2013-02-22 23:09:00,39.7,36.1,30.03,ESE,109,4.6,4.6,87,0.00,,,0.21,WeatherDisplay:10.37,2013-02-23 04:09:00,
2013-02-22 23:11:00,39.7,36.1,30.03,NE,56,3.5,3.5,87,0.00,,,0.21,WeatherDisplay:10.37,2013-02-23 04:11:00,
2013-02-22 23:12:00,39.7,36.1,30.03,East,87,3.5,3.5,87,0.00,,,0.21,WeatherDisplay:10.37,2013-02-23 04:12:00,
2013-02-22 23:13:00,39.7,36.1,30.03,NE,46,3.5,3.5,87,0.00,,,0.21,WeatherDisplay:10.37,2013-02-23 04:13:00,
2013-02-22 23:15:00,39.7,36.1,30.03,SSE,165,3.5,3.5,87,0.00,,,0.21,WeatherDisplay:10.37,2013-02-23 04:15:00,
2013-02-22 23:17:00,39.7,36.1,30.03,ENE,73,2.3,2.3,87,0.00,,,0.21,WeatherDisplay:10.37,2013-02-23 04:17:00,
2013-02-22 23:18:00,39.7,36.1,30.03,NE,51,3.5,3.5,87,0.00,,,0.21,WeatherDisplay:10.37,2013-02-23 04:18:00,
2013-02-22 23:20:00,39.7,36.1,30.03,East,79,3.0,5.0,87,0.00,,,0.21,WeatherDisplay:10.37,2013-02-23 04:20:00,
2013-02-22 23:22:00,39.7,36.1,30.03,North,11,3.5,3.5,87,0.00,,,0.21,WeatherDisplay:10.37,2013-02-23 04:22:00,
2013-02-22 23:23:00,39.7,36.1,30.03,ENE,75,4.6,4.6,87,0.00,,,0.21,WeatherDisplay:10.37,2013-02-23 04:23:00,
2013-02-22 23:25:00,39.7,36.1,30.03,ENE,73,3.5,3.5,87,0.00,,,0.21,WeatherDisplay:10.37,2013-02-23 04:25:00,
2013-02-22 23:27:00,39.7,36.1,30.03,ESE,113,2.3,2.3,87,0.00,,,0.21,WeatherDisplay:10.37,2013-02-23 04:27:00,
2013-02-22 23:28:00,39.7,36.1,30.03,ESE,110,2.3,2.3,87,0.00,,,0.21,WeatherDisplay:10.37,2013-02-23 04:28:00,
2013-02-22 23:30:00,39.7,36.1,30.03,SE,128,3.5,3.5,87,0.00,,,0.21,WeatherDisplay:10.37,2013-02-23 04:30:00,
2013-02-22 23:32:00,39.7,36.1,30.03,ESE,122,4.0,4.0,87,0.00,,,0.21,WeatherDisplay:10.37,2013-02-23 04:32:00,
2013-02-22 23:33:00,39.6,36.0,30.03,SE,126,3.5,3.5,87,0.00,,,0.21,WeatherDisplay:10.37,2013-02-23 04:33:00,
2013-02-22 23:35:00,39.6,36.0,30.03,SSE,158,1.1,1.1,87,0.00,,,0.21,WeatherDisplay:10.37,2013-02-23 04:35:00,
2013-02-22 23:38:00,39.6,36.0,30.04,ESE,108,2.3,2.3,87,0.00,,,0.21,WeatherDisplay:10.37,2013-02-23 04:38:00,
2013-02-22 23:39:00,39.5,36.0,30.04,ESE,115,1.1,1.1,87,0.00,,,0.21,WeatherDisplay:10.37,2013-02-23 04:39:00,
2013-02-22 23:40:00,39.5,36.0,30.04,SE,129,2.3,2.3,87,0.00,,,0.21,WeatherDisplay:10.37,2013-02-23 04:40:00,
2013-02-22 23:43:00,39.5,36.0,30.05,ESE,114,2.3,2.3,87,0.00,,,0.21,WeatherDisplay:10.37,2013-02-23 04:43:00,
2013-02-22 23:44:00,39.5,36.0,30.05,SE,144,3.5,3.5,87,0.00,,,0.21,WeatherDisplay:10.37,2013-02-23 04:44:00,
2013-02-22 23:45:00,39.5,36.0,30.05,SE,146,2.3,2.3,87,0.00,,,0.21,WeatherDisplay:10.37,2013-02-23 04:45:00,
2013-02-22 23:48:00,39.5,36.0,30.05,SE,137,2.3,2.3,87,0.00,,,0.21,WeatherDisplay:10.37,2013-02-23 04:48:00,
2013-02-22 23:50:00,39.5,36.0,30.05,East,81,3.5,3.5,87,0.00,,,0.21,WeatherDisplay:10.37,2013-02-23 04:50:00,
2013-02-22 23:53:00,39.5,36.0,30.05,North,2,2.3,2.3,87,0.00,,,0.21,WeatherDisplay:10.37,2013-02-23 04:53:00,
2013-02-22 23:54:00,39.5,36.0,30.05,North,2,2.3,2.3,87,0.00,,,0.21,WeatherDisplay:10.37,2013-02-23 04:54:00,
2013-02-22 23:55:00,39.5,36.0,30.05,NNE,12,1.1,1.1,87,0.00,,,0.21,WeatherDisplay:10.37,2013-02-23 04:55:00,
2013-02-22 23:59:00,39.4,35.9,30.05,ESE,105,2.3,2.3,87,0.00,,,0.21,WeatherDisplay:10.37,2013-02-23 04:59:00,